Time,TemperatureF,DewpointF,PressureIn,WindDirection,WindDirectionDegrees,WindSpeedMPH,WindSpeedGustMPH,Humidity,HourlyPrecipIn,Conditions,Clouds,dailyrainin,SoftwareType,DateUTC
2013-05-17 00:00:00,68.4,32.2,29.82,WNW,292,3.1,5.6,26,0.00,,---,0.00,VWS V14.00,2013-05-17 04:00:00,
2013-05-17 00:01:00,68.4,32.2,29.82,West,270,1.6,3.1,26,0.00,,---,0.00,VWS V14.00,2013-05-17 04:01:00,
2013-05-17 00:02:00,68.4,32.2,29.82,West,270,0.0,2.7,26,0.00,,---,0.00,VWS V14.00,2013-05-17 04:02:00,
2013-05-17 00:04:00,68.2,32.0,29.82,WNW,292,2.9,3.6,26,0.00,,---,0.00,VWS V14.00,2013-05-17 04:04:00,
2013-05-17 00:07:00,68.0,31.9,29.82,WNW,292,3.1,3.1,26,0.00,,---,0.00,VWS V14.00,2013-05-17 04:07:00,
2013-05-17 00:10:00,67.8,32.7,29.82,WNW,292,1.6,2.9,27,0.00,,---,0.00,VWS V14.00,2013-05-17 04:10:00,
2013-05-17 00:11:00,67.8,32.7,29.82,West,270,2.9,2.9,27,0.00,,---,0.00,VWS V14.00,2013-05-17 04:11:00,
2013-05-17 00:14:00,67.8,32.7,29.82,NW,315,1.3,4.0,27,0.00,,---,0.00,VWS V14.00,2013-05-17 04:14:00,
2013-05-17 00:15:00,67.6,32.5,29.82,NW,315,1.3,1.3,27,0.00,,---,0.00,VWS V14.00,2013-05-17 04:15:00,
2013-05-17 00:18:00,67.6,32.5,29.82,WNW,292,0.0,3.4,27,0.00,,---,0.00,VWS V14.00,2013-05-17 04:18:00,
2013-05-17 00:20:00,67.6,33.4,29.82,WNW,292,2.2,3.1,28,0.00,,---,0.00,VWS V14.00,2013-05-17 04:20:00,
2013-05-17 00:21:00,67.6,33.4,29.82,West,270,1.6,2.5,28,0.00,,---,0.00,VWS V14.00,2013-05-17 04:21:00,
2013-05-17 00:22:00,67.6,33.4,29.82,NW,315,2.5,2.5,28,0.00,,---,0.00,VWS V14.00,2013-05-17 04:22:00,
2013-05-17 00:24:00,67.6,33.4,29.82,West,270,2.5,2.7,28,0.00,,---,0.00,VWS V14.00,2013-05-17 04:24:00,
2013-05-17 00:29:00,67.5,34.1,29.82,WNW,292,2.0,2.9,29,0.00,,---,0.00,VWS V14.00,2013-05-17 04:29:00,
2013-05-17 00:30:00,67.3,34.0,29.82,West,270,2.7,2.7,29,0.00,,---,0.00,VWS V14.00,2013-05-17 04:30:00,
2013-05-17 00:32:00,67.3,34.0,29.82,West,270,2.5,2.9,29,0.00,,---,0.00,VWS V14.00,2013-05-17 04:32:00,
2013-05-17 00:34:00,67.3,34.0,29.82,WNW,292,1.6,2.7,29,0.00,,---,0.00,VWS V14.00,2013-05-17 04:34:00,
2013-05-17 00:36:00,67.3,34.0,29.82,WNW,292,3.4,3.8,29,0.00,,---,0.00,VWS V14.00,2013-05-17 04:36:00,
2013-05-17 00:38:00,67.3,34.8,29.82,West,270,1.3,3.8,30,0.00,,---,0.00,VWS V14.00,2013-05-17 04:38:00,
2013-05-17 00:41:00,67.1,33.8,29.82,West,270,2.7,3.1,29,0.00,,---,0.00,VWS V14.00,2013-05-17 04:41:00,
2013-05-17 00:42:00,67.1,33.8,29.82,WNW,292,2.7,4.7,29,0.00,,---,0.00,VWS V14.00,2013-05-17 04:42:00,
2013-05-17 00:43:00,67.1,33.8,29.82,WNW,292,2.7,2.7,29,0.00,,---,0.00,VWS V14.00,2013-05-17 04:43:00,
2013-05-17 00:48:00,67.1,34.7,29.82,West,270,0.0,2.2,30,0.00,,---,0.00,VWS V14.00,2013-05-17 04:48:00,
2013-05-17 00:52:00,67.1,35.5,29.82,WNW,292,3.4,3.8,31,0.00,,---,0.00,VWS V14.00,2013-05-17 04:52:00,
2013-05-17 00:53:00,67.1,35.5,29.82,WNW,292,1.3,3.4,31,0.00,,---,0.00,VWS V14.00,2013-05-17 04:53:00,
2013-05-17 00:54:00,66.9,35.3,29.82,West,270,1.1,3.8,31,0.00,,---,0.00,VWS V14.00,2013-05-17 04:54:00,
2013-05-17 00:55:00,66.9,35.3,29.82,West,270,2.0,2.9,31,0.00,,---,0.00,VWS V14.00,2013-05-17 04:55:00,
2013-05-17 00:57:00,66.9,35.3,29.82,WNW,292,3.1,3.1,31,0.00,,---,0.00,VWS V14.00,2013-05-17 04:57:00,
2013-05-17 00:59:00,66.9,35.3,29.82,WNW,292,3.1,3.6,31,0.00,,---,0.00,VWS V14.00,2013-05-17 04:59:00,
2013-05-17 01:01:00,66.7,35.2,29.82,WNW,292,2.2,2.2,31,0.00,,---,0.00,VWS V14.00,2013-05-17 05:01:00,
2013-05-17 01:02:00,66.7,35.2,29.82,West,270,0.0,2.2,31,0.00,,---,0.00,VWS V14.00,2013-05-17 05:02:00,
2013-05-17 01:03:00,66.7,35.2,29.82,WNW,292,1.6,3.6,31,0.00,,---,0.00,VWS V14.00,2013-05-17 05:03:00,
2013-05-17 01:04:00,66.7,35.2,29.85,WSW,248,3.8,4.0,31,0.00,,---,0.00,VWS V14.00,2013-05-17 05:04:00,
2013-05-17 01:05:00,66.7,35.2,29.85,NW,315,1.6,4.7,31,0.00,,---,0.00,VWS V14.00,2013-05-17 05:05:00,
2013-05-17 01:06:00,66.7,35.2,29.85,West,270,1.6,4.7,31,0.00,,---,0.00,VWS V14.00,2013-05-17 05:06:00,
2013-05-17 01:07:00,66.7,35.2,29.85,NNW,338,2.5,2.5,31,0.00,,---,0.00,VWS V14.00,2013-05-17 05:07:00,
2013-05-17 01:10:00,66.7,35.2,29.85,NW,315,3.8,3.8,31,0.00,,---,0.00,VWS V14.00,2013-05-17 05:10:00,
2013-05-17 01:11:00,66.7,35.2,29.85,West,270,5.6,5.6,31,0.00,,---,0.00,VWS V14.00,2013-05-17 05:11:00,
2013-05-17 01:14:00,66.6,33.3,29.85,NNW,338,3.4,4.9,29,0.00,,---,0.00,VWS V14.00,2013-05-17 05:14:00,
2013-05-17 01:15:00,66.6,33.3,29.85,NNW,338,2.7,3.4,29,0.00,,---,0.00,VWS V14.00,2013-05-17 05:15:00,
2013-05-17 01:16:00,66.4,31.4,29.85,NW,315,2.7,2.7,27,0.00,,---,0.00,VWS V14.00,2013-05-17 05:16:00,
2013-05-17 01:17:00,66.4,31.4,29.85,NNW,338,2.5,3.4,27,0.00,,---,0.00,VWS V14.00,2013-05-17 05:17:00,
2013-05-17 01:20:00,66.6,31.6,29.85,NNW,338,2.9,5.4,27,0.00,,---,0.00,VWS V14.00,2013-05-17 05:20:00,
2013-05-17 01:21:00,66.4,30.5,29.85,WNW,292,1.1,3.8,26,0.00,,---,0.00,VWS V14.00,2013-05-17 05:21:00,
2013-05-17 01:23:00,66.6,30.6,29.85,NNW,338,0.9,2.5,26,0.00,,---,0.00,VWS V14.00,2013-05-17 05:23:00,
2013-05-17 01:24:00,66.4,29.5,29.85,North,0,3.6,3.6,25,0.00,,---,0.00,VWS V14.00,2013-05-17 05:24:00,
2013-05-17 01:26:00,66.4,29.5,29.85,WNW,292,2.5,2.5,25,0.00,,---,0.00,VWS V14.00,2013-05-17 05:26:00,
2013-05-17 01:29:00,66.4,29.5,29.85,NNW,338,0.0,1.6,25,0.00,,---,0.00,VWS V14.00,2013-05-17 05:29:00,
2013-05-17 01:31:00,66.2,28.4,29.85,NNW,338,2.2,4.3,24,0.00,,---,0.00,VWS V14.00,2013-05-17 05:31:00,
2013-05-17 01:32:00,66.2,28.4,29.85,NNW,338,0.0,3.8,24,0.00,,---,0.00,VWS V14.00,2013-05-17 05:32:00,
2013-05-17 01:33:00,66.2,28.4,29.85,WNW,292,1.1,1.1,24,0.00,,---,0.00,VWS V14.00,2013-05-17 05:33:00,
2013-05-17 01:37:00,66.2,28.4,29.85,North,0,3.4,3.4,24,0.00,,---,0.00,VWS V14.00,2013-05-17 05:37:00,
2013-05-17 01:38:00,66.2,28.4,29.85,WNW,292,4.0,4.0,24,0.00,,---,0.00,VWS V14.00,2013-05-17 05:38:00,
2013-05-17 01:39:00,66.2,27.3,29.85,NNE,22,0.0,4.0,23,0.00,,---,0.00,VWS V14.00,2013-05-17 05:39:00,
2013-05-17 01:40:00,66.2,27.3,29.85,NW,315,2.7,2.7,23,0.00,,---,0.00,VWS V14.00,2013-05-17 05:40:00,
2013-05-17 01:44:00,66.2,27.3,29.85,NNW,338,1.1,3.1,23,0.00,,---,0.00,VWS V14.00,2013-05-17 05:44:00,
2013-05-17 01:45:00,66.2,27.3,29.85,NNW,338,2.5,2.5,23,0.00,,---,0.00,VWS V14.00,2013-05-17 05:45:00,
2013-05-17 01:46:00,66.0,27.2,29.85,NNW,338,2.5,3.6,23,0.00,,---,0.00,VWS V14.00,2013-05-17 05:46:00,
2013-05-17 01:49:00,66.0,27.2,29.85,NNE,22,0.0,3.1,23,0.00,,---,0.00,VWS V14.00,2013-05-17 05:49:00,
2013-05-17 01:50:00,66.0,27.2,29.85,North,0,1.3,3.4,23,0.00,,---,0.00,VWS V14.00,2013-05-17 05:50:00,
2013-05-17 01:51:00,66.0,27.2,29.85,WNW,292,1.1,2.7,23,0.00,,---,0.00,VWS V14.00,2013-05-17 05:51:00,
2013-05-17 01:55:00,66.0,27.2,29.85,NNW,338,4.7,5.4,23,0.00,,---,0.00,VWS V14.00,2013-05-17 05:55:00,
2013-05-17 01:56:00,66.0,27.2,29.85,NW,315,2.7,4.9,23,0.00,,---,0.00,VWS V14.00,2013-05-17 05:56:00,
2013-05-17 01:57:00,66.0,27.2,29.85,NNW,338,2.9,3.4,23,0.00,,---,0.00,VWS V14.00,2013-05-17 05:57:00,
2013-05-17 01:59:00,66.0,27.2,29.85,NNW,338,1.1,5.4,23,0.00,,---,0.00,VWS V14.00,2013-05-17 05:59:00,
2013-05-17 02:01:00,66.0,27.2,29.85,NW,315,2.5,4.3,23,0.00,,---,0.00,VWS V14.00,2013-05-17 06:01:00,
2013-05-17 02:03:00,66.0,27.2,29.85,NNW,338,2.5,2.9,23,0.00,,---,0.00,VWS V14.00,2013-05-17 06:03:00,
2013-05-17 02:04:00,66.0,27.2,29.85,NW,315,2.9,3.8,23,0.00,,---,0.00,VWS V14.00,2013-05-17 06:04:00,
2013-05-17 02:05:00,66.0,27.2,29.85,NNW,338,2.2,4.3,23,0.00,,---,0.00,VWS V14.00,2013-05-17 06:05:00,
2013-05-17 02:08:00,66.0,27.2,29.85,NW,315,2.7,3.1,23,0.00,,---,0.00,VWS V14.00,2013-05-17 06:08:00,
2013-05-17 02:10:00,65.8,23.7,29.85,NNW,338,0.0,3.6,20,0.00,,---,0.00,VWS V14.00,2013-05-17 06:10:00,
2013-05-17 02:13:00,65.8,27.0,29.85,NW,315,0.9,4.0,23,0.00,,---,0.00,VWS V14.00,2013-05-17 06:13:00,
2013-05-17 02:14:00,65.8,23.7,29.85,NNW,338,2.9,3.1,20,0.00,,---,0.00,VWS V14.00,2013-05-17 06:14:00,
2013-05-17 02:16:00,65.8,23.7,29.85,NW,315,4.9,4.9,20,0.00,,---,0.00,VWS V14.00,2013-05-17 06:16:00,
2013-05-17 02:17:00,65.7,23.5,29.85,NW,315,2.0,4.9,20,0.00,,---,0.00,VWS V14.00,2013-05-17 06:17:00,
2013-05-17 02:18:00,65.7,23.5,29.85,North,0,2.5,2.9,20,0.00,,---,0.00,VWS V14.00,2013-05-17 06:18:00,
2013-05-17 02:20:00,65.7,23.5,29.85,North,0,0.0,0.0,20,0.00,,---,0.00,VWS V14.00,2013-05-17 06:20:00,
2013-05-17 02:22:00,65.5,23.4,29.85,North,0,0.9,3.1,20,0.00,,---,0.00,VWS V14.00,2013-05-17 06:22:00,
2013-05-17 02:24:00,65.3,23.2,29.85,NNE,22,2.5,2.5,20,0.00,,---,0.00,VWS V14.00,2013-05-17 06:24:00,
2013-05-17 02:26:00,65.3,23.2,29.85,NNW,338,1.3,2.7,20,0.00,,---,0.00,VWS V14.00,2013-05-17 06:26:00,
2013-05-17 02:29:00,65.1,23.1,29.85,North,0,1.6,2.5,20,0.00,,---,0.00,VWS V14.00,2013-05-17 06:29:00,
2013-05-17 02:30:00,64.9,22.9,29.85,NNW,338,2.5,3.8,20,0.00,,---,0.00,VWS V14.00,2013-05-17 06:30:00,
2013-05-17 02:32:00,64.8,26.1,29.85,NNW,338,0.9,4.7,23,0.00,,---,0.00,VWS V14.00,2013-05-17 06:32:00,
2013-05-17 02:34:00,64.8,26.1,29.85,NE,45,1.6,3.8,23,0.00,,---,0.00,VWS V14.00,2013-05-17 06:34:00,
2013-05-17 02:36:00,64.8,26.1,29.85,NNE,22,4.3,4.3,23,0.00,,---,0.00,VWS V14.00,2013-05-17 06:36:00,
2013-05-17 02:39:00,64.6,26.0,29.85,NW,315,2.5,3.8,23,0.00,,---,0.00,VWS V14.00,2013-05-17 06:39:00,
2013-05-17 02:40:00,64.4,25.8,29.85,North,0,2.9,2.9,23,0.00,,---,0.00,VWS V14.00,2013-05-17 06:40:00,
2013-05-17 02:41:00,64.4,25.8,29.85,NW,315,3.1,3.1,23,0.00,,---,0.00,VWS V14.00,2013-05-17 06:41:00,
2013-05-17 02:42:00,64.4,25.8,29.85,NNW,338,1.6,3.1,23,0.00,,---,0.00,VWS V14.00,2013-05-17 06:42:00,
2013-05-17 02:44:00,64.2,25.7,29.85,NNE,22,2.0,2.9,23,0.00,,---,0.00,VWS V14.00,2013-05-17 06:44:00,
2013-05-17 02:46:00,64.2,25.7,29.85,NNW,338,0.9,1.6,23,0.00,,---,0.00,VWS V14.00,2013-05-17 06:46:00,
2013-05-17 02:47:00,64.2,25.7,29.85,NNE,22,0.9,1.3,23,0.00,,---,0.00,VWS V14.00,2013-05-17 06:47:00,
2013-05-17 02:49:00,63.9,25.4,29.88,NW,315,0.0,1.3,23,0.00,,---,0.00,VWS V14.00,2013-05-17 06:49:00,
2013-05-17 02:50:00,63.9,25.4,29.88,NW,315,1.1,3.6,23,0.00,,---,0.00,VWS V14.00,2013-05-17 06:50:00,
2013-05-17 02:53:00,63.9,25.4,29.88,NNW,338,0.0,2.9,23,0.00,,---,0.00,VWS V14.00,2013-05-17 06:53:00,
2013-05-17 02:54:00,63.9,25.4,29.88,North,0,3.1,3.8,23,0.00,,---,0.00,VWS V14.00,2013-05-17 06:54:00,
2013-05-17 02:55:00,63.9,25.4,29.88,North,0,0.0,3.1,23,0.00,,---,0.00,VWS V14.00,2013-05-17 06:55:00,
2013-05-17 02:57:00,63.7,25.2,29.88,NNW,338,0.0,1.1,23,0.00,,---,0.00,VWS V14.00,2013-05-17 06:57:00,
2013-05-17 02:59:00,63.5,25.1,29.88,NW,315,2.5,2.7,23,0.00,,---,0.00,VWS V14.00,2013-05-17 06:59:00,
2013-05-17 03:01:00,63.5,25.1,29.88,NW,315,2.9,2.9,23,0.00,,---,0.00,VWS V14.00,2013-05-17 07:01:00,
2013-05-17 03:04:00,63.5,22.9,29.88,NNE,22,2.0,5.4,21,0.00,,---,0.00,VWS V14.00,2013-05-17 07:04:00,
2013-05-17 03:05:00,63.3,22.8,29.88,NNW,338,2.0,2.0,21,0.00,,---,0.00,VWS V14.00,2013-05-17 07:05:00,
2013-05-17 03:07:00,63.3,22.8,29.88,NNW,338,2.0,2.9,21,0.00,,---,0.00,VWS V14.00,2013-05-17 07:07:00,
2013-05-17 03:08:00,63.3,22.8,29.88,NNW,338,2.2,2.2,21,0.00,,---,0.00,VWS V14.00,2013-05-17 07:08:00,
2013-05-17 03:10:00,63.3,22.8,29.88,North,0,0.0,2.9,21,0.00,,---,0.00,VWS V14.00,2013-05-17 07:10:00,
2013-05-17 03:11:00,63.3,22.8,29.88,WNW,292,3.6,3.6,21,0.00,,---,0.00,VWS V14.00,2013-05-17 07:11:00,
2013-05-17 03:12:00,63.3,22.8,29.88,North,0,2.7,3.6,21,0.00,,---,0.00,VWS V14.00,2013-05-17 07:12:00,
2013-05-17 03:13:00,63.5,22.9,29.88,NNW,338,0.0,2.7,21,0.00,,---,0.00,VWS V14.00,2013-05-17 07:13:00,
2013-05-17 03:15:00,63.5,22.9,29.88,North,0,1.1,2.9,21,0.00,,---,0.00,VWS V14.00,2013-05-17 07:15:00,
2013-05-17 03:19:00,63.7,23.0,29.91,NW,315,3.4,3.4,21,0.00,,---,0.00,VWS V14.00,2013-05-17 07:19:00,
2013-05-17 03:20:00,63.7,23.0,29.91,NNE,22,2.2,3.4,21,0.00,,---,0.00,VWS V14.00,2013-05-17 07:20:00,
2013-05-17 03:21:00,63.7,23.0,29.91,NNE,22,0.9,2.9,21,0.00,,---,0.00,VWS V14.00,2013-05-17 07:21:00,
2013-05-17 03:22:00,63.7,23.0,29.91,North,0,4.3,4.7,21,0.00,,---,0.00,VWS V14.00,2013-05-17 07:22:00,
2013-05-17 03:25:00,63.9,23.2,29.91,North,0,3.4,4.3,21,0.00,,---,0.00,VWS V14.00,2013-05-17 07:25:00,
2013-05-17 03:27:00,63.9,23.2,29.91,NNE,22,2.9,5.6,21,0.00,,---,0.00,VWS V14.00,2013-05-17 07:27:00,
2013-05-17 03:30:00,63.9,23.2,29.91,North,0,2.0,4.3,21,0.00,,---,0.00,VWS V14.00,2013-05-17 07:30:00,
2013-05-17 03:31:00,63.9,23.2,29.91,NNW,338,5.4,5.4,21,0.00,,---,0.00,VWS V14.00,2013-05-17 07:31:00,
2013-05-17 03:32:00,63.9,23.2,29.91,NNE,22,3.1,5.4,21,0.00,,---,0.00,VWS V14.00,2013-05-17 07:32:00,
2013-05-17 03:34:00,64.0,19.7,29.94,NNE,22,4.0,6.0,18,0.00,,---,0.00,VWS V14.00,2013-05-17 07:34:00,
2013-05-17 03:36:00,64.0,19.7,29.94,North,0,3.4,3.4,18,0.00,,---,0.00,VWS V14.00,2013-05-17 07:36:00,
2013-05-17 03:38:00,64.0,19.7,29.94,NNE,22,2.9,5.6,18,0.00,,---,0.00,VWS V14.00,2013-05-17 07:38:00,
2013-05-17 03:41:00,64.2,19.9,29.94,NNE,22,3.8,4.9,18,0.00,,---,0.00,VWS V14.00,2013-05-17 07:41:00,
2013-05-17 03:42:00,64.2,12.4,29.94,NNE,22,3.6,4.0,13,0.00,,---,0.00,VWS V14.00,2013-05-17 07:42:00,
2013-05-17 03:45:00,64.0,19.7,29.94,North,0,2.2,3.4,18,0.00,,---,0.00,VWS V14.00,2013-05-17 07:45:00,
2013-05-17 03:47:00,63.9,19.6,29.94,NNW,338,1.1,2.7,18,0.00,,---,0.00,VWS V14.00,2013-05-17 07:47:00,
2013-05-17 03:51:00,63.7,19.4,29.91,NNE,22,3.1,4.3,18,0.00,,---,0.00,VWS V14.00,2013-05-17 07:51:00,
2013-05-17 03:52:00,63.5,19.3,29.91,North,0,2.0,3.1,18,0.00,,---,0.00,VWS V14.00,2013-05-17 07:52:00,
2013-05-17 03:53:00,63.5,19.3,29.91,NNE,22,2.5,2.5,18,0.00,,---,0.00,VWS V14.00,2013-05-17 07:53:00,
2013-05-17 03:57:00,63.5,19.3,29.91,North,0,2.9,3.8,18,0.00,,---,0.00,VWS V14.00,2013-05-17 07:57:00,
2013-05-17 03:59:00,63.5,19.3,29.91,North,0,2.0,2.9,18,0.00,,---,0.00,VWS V14.00,2013-05-17 07:59:00,
2013-05-17 04:01:00,63.3,19.1,29.91,NNE,22,3.8,3.8,18,0.00,,---,0.00,VWS V14.00,2013-05-17 08:01:00,
2013-05-17 04:04:00,63.1,19.0,29.91,North,0,3.1,3.1,18,0.00,,---,0.00,VWS V14.00,2013-05-17 08:04:00,
2013-05-17 04:05:00,63.1,19.0,29.91,North,0,6.0,6.0,18,0.00,,---,0.00,VWS V14.00,2013-05-17 08:05:00,
2013-05-17 04:10:00,63.1,19.0,29.91,North,0,5.6,5.6,18,0.00,,---,0.00,VWS V14.00,2013-05-17 08:10:00,
2013-05-17 04:11:00,63.1,19.0,29.91,NNE,22,3.8,5.6,18,0.00,,---,0.00,VWS V14.00,2013-05-17 08:11:00,
2013-05-17 04:13:00,63.1,19.0,29.91,NNE,22,3.4,3.4,18,0.00,,---,0.00,VWS V14.00,2013-05-17 08:13:00,
2013-05-17 04:14:00,63.0,18.8,29.91,NNE,22,2.0,3.6,18,0.00,,---,0.00,VWS V14.00,2013-05-17 08:14:00,
2013-05-17 04:15:00,63.0,18.8,29.91,NNE,22,1.6,2.7,18,0.00,,---,0.00,VWS V14.00,2013-05-17 08:15:00,
2013-05-17 04:18:00,63.0,18.8,29.91,NNE,22,2.0,5.6,18,0.00,,---,0.00,VWS V14.00,2013-05-17 08:18:00,
2013-05-17 04:20:00,63.0,18.8,29.91,NNW,338,0.9,2.0,18,0.00,,---,0.00,VWS V14.00,2013-05-17 08:20:00,
2013-05-17 04:22:00,62.8,18.7,29.91,NNW,338,1.1,2.5,18,0.00,,---,0.00,VWS V14.00,2013-05-17 08:22:00,
2013-05-17 04:23:00,62.6,18.5,29.91,North,0,0.0,1.1,18,0.00,,---,0.00,VWS V14.00,2013-05-17 08:23:00,
2013-05-17 04:24:00,62.6,18.5,29.91,NNW,338,0.0,0.0,18,0.00,,---,0.00,VWS V14.00,2013-05-17 08:24:00,
2013-05-17 04:25:00,62.2,19.5,29.91,NNE,22,1.3,4.3,19,0.00,,---,0.00,VWS V14.00,2013-05-17 08:25:00,
2013-05-17 04:28:00,61.9,19.2,29.91,NNE,22,2.7,2.7,19,0.00,,---,0.00,VWS V14.00,2013-05-17 08:28:00,
2013-05-17 04:29:00,61.9,19.2,29.91,North,0,2.7,2.7,19,0.00,,---,0.00,VWS V14.00,2013-05-17 08:29:00,
2013-05-17 04:30:00,61.7,19.0,29.91,NNE,22,1.6,2.7,19,0.00,,---,0.00,VWS V14.00,2013-05-17 08:30:00,
2013-05-17 04:32:00,61.7,19.0,29.91,North,0,1.3,1.6,19,0.00,,---,0.00,VWS V14.00,2013-05-17 08:32:00,
2013-05-17 04:34:00,61.3,18.8,29.94,NNE,22,2.0,2.5,19,0.00,,---,0.00,VWS V14.00,2013-05-17 08:34:00,
2013-05-17 04:35:00,61.3,18.8,29.94,NNE,22,0.0,2.0,19,0.00,,---,0.00,VWS V14.00,2013-05-17 08:35:00,
2013-05-17 04:40:00,61.2,18.6,29.94,North,0,0.0,0.0,19,0.00,,---,0.00,VWS V14.00,2013-05-17 08:40:00,
2013-05-17 04:41:00,61.0,18.5,29.94,North,0,0.0,0.0,19,0.00,,---,0.00,VWS V14.00,2013-05-17 08:41:00,
2013-05-17 04:43:00,60.8,18.3,29.94,North,0,0.0,3.4,19,0.00,,---,0.00,VWS V14.00,2013-05-17 08:43:00,
2013-05-17 04:45:00,60.8,18.3,29.94,North,0,0.0,2.2,19,0.00,,---,0.00,VWS V14.00,2013-05-17 08:45:00,
2013-05-17 04:46:00,60.6,18.2,29.94,NNE,22,2.7,2.7,19,0.00,,---,0.00,VWS V14.00,2013-05-17 08:46:00,
2013-05-17 04:48:00,60.4,18.0,29.94,North,0,0.9,1.3,19,0.00,,---,0.00,VWS V14.00,2013-05-17 08:48:00,
2013-05-17 04:49:00,60.4,18.0,29.94,North,0,0.0,0.9,19,0.00,,---,0.00,VWS V14.00,2013-05-17 08:49:00,
2013-05-17 04:53:00,60.1,17.7,29.94,North,0,0.0,0.0,19,0.00,,---,0.00,VWS V14.00,2013-05-17 08:53:00,
2013-05-17 04:54:00,59.9,17.6,29.94,North,0,0.0,0.0,19,0.00,,---,0.00,VWS V14.00,2013-05-17 08:54:00,
2013-05-17 04:55:00,59.7,17.4,29.94,North,0,0.0,0.0,19,0.00,,---,0.00,VWS V14.00,2013-05-17 08:55:00,
2013-05-17 04:56:00,59.7,17.4,29.94,North,0,0.0,0.0,19,0.00,,---,0.00,VWS V14.00,2013-05-17 08:56:00,
2013-05-17 05:00:00,59.2,17.0,29.94,West,270,0.0,0.0,19,0.00,,---,0.00,VWS V14.00,2013-05-17 09:00:00,
2013-05-17 05:02:00,58.8,16.7,29.94,NW,315,0.0,0.0,19,0.00,,---,0.00,VWS V14.00,2013-05-17 09:02:00,
2013-05-17 05:07:00,58.3,16.2,29.94,NW,315,0.0,0.0,19,0.00,,---,0.00,VWS V14.00,2013-05-17 09:07:00,
2013-05-17 05:08:00,58.1,16.1,29.94,NW,315,0.0,0.0,19,0.00,,---,0.00,VWS V14.00,2013-05-17 09:08:00,
2013-05-17 05:09:00,58.1,16.1,29.94,NNW,338,1.6,1.6,19,0.00,,---,0.00,VWS V14.00,2013-05-17 09:09:00,
2013-05-17 05:11:00,58.1,16.1,29.94,NE,45,0.0,2.9,19,0.00,,---,0.00,VWS V14.00,2013-05-17 09:11:00,
2013-05-17 05:13:00,58.1,16.1,29.94,NNE,22,0.0,1.6,19,0.00,,---,0.00,VWS V14.00,2013-05-17 09:13:00,
2013-05-17 05:15:00,57.9,15.9,29.94,NNE,22,0.9,0.9,19,0.00,,---,0.00,VWS V14.00,2013-05-17 09:15:00,
2013-05-17 05:16:00,57.9,15.9,29.94,NNE,22,0.0,0.9,19,0.00,,---,0.00,VWS V14.00,2013-05-17 09:16:00,
2013-05-17 05:19:00,57.6,15.6,29.94,WNW,292,0.0,0.0,19,0.00,,---,0.00,VWS V14.00,2013-05-17 09:19:00,
2013-05-17 05:21:00,57.6,15.6,29.94,WNW,292,0.0,0.0,19,0.00,,---,0.00,VWS V14.00,2013-05-17 09:21:00,
2013-05-17 05:22:00,57.4,15.5,29.94,WNW,292,0.0,0.0,19,0.00,,---,0.00,VWS V14.00,2013-05-17 09:22:00,
2013-05-17 05:24:00,57.2,15.3,29.94,WNW,292,0.0,0.0,19,0.00,,---,0.00,VWS V14.00,2013-05-17 09:24:00,
2013-05-17 05:25:00,57.2,15.3,29.94,WNW,292,0.0,0.0,19,0.00,,---,0.00,VWS V14.00,2013-05-17 09:25:00,
2013-05-17 05:28:00,56.8,16.2,29.94,WNW,292,0.0,0.0,20,0.00,,---,0.00,VWS V14.00,2013-05-17 09:28:00,
2013-05-17 05:29:00,56.8,16.2,29.94,WNW,292,0.0,0.0,20,0.00,,---,0.00,VWS V14.00,2013-05-17 09:29:00,
2013-05-17 05:31:00,56.7,16.1,29.94,WNW,292,0.0,0.0,20,0.00,,---,0.00,VWS V14.00,2013-05-17 09:31:00,
2013-05-17 05:32:00,56.7,16.1,29.94,NNW,338,2.0,2.5,20,0.00,,---,0.00,VWS V14.00,2013-05-17 09:32:00,
2013-05-17 05:33:00,56.7,16.1,29.94,North,0,1.1,2.2,20,0.00,,---,0.00,VWS V14.00,2013-05-17 09:33:00,
2013-05-17 05:34:00,56.7,16.1,29.94,North,0,1.1,1.1,20,0.00,,---,0.00,VWS V14.00,2013-05-17 09:34:00,
2013-05-17 05:35:00,56.7,16.1,29.94,North,0,0.0,1.3,20,0.00,,---,0.00,VWS V14.00,2013-05-17 09:35:00,
2013-05-17 05:37:00,56.7,16.1,29.94,North,0,0.0,1.1,20,0.00,,---,0.00,VWS V14.00,2013-05-17 09:37:00,
2013-05-17 05:40:00,56.7,16.1,29.94,NNE,22,1.1,2.0,20,0.00,,---,0.00,VWS V14.00,2013-05-17 09:40:00,
2013-05-17 05:41:00,56.8,16.2,29.94,NNE,22,0.0,2.2,20,0.00,,---,0.00,VWS V14.00,2013-05-17 09:41:00,
2013-05-17 05:42:00,56.7,16.1,29.94,NNE,22,0.0,0.0,20,0.00,,---,0.00,VWS V14.00,2013-05-17 09:42:00,
2013-05-17 05:47:00,56.7,16.1,29.94,NE,45,0.0,0.0,20,0.00,,---,0.00,VWS V14.00,2013-05-17 09:47:00,
2013-05-17 05:49:00,56.5,15.9,29.94,NE,45,0.0,0.0,20,0.00,,---,0.00,VWS V14.00,2013-05-17 09:49:00,
2013-05-17 05:50:00,56.5,15.9,29.94,NE,45,0.0,0.0,20,0.00,,---,0.00,VWS V14.00,2013-05-17 09:50:00,
2013-05-17 05:51:00,56.5,15.9,29.94,NE,45,0.0,0.0,20,0.00,,---,0.00,VWS V14.00,2013-05-17 09:51:00,
2013-05-17 05:53:00,56.5,15.9,29.94,NE,45,0.0,0.0,20,0.00,,---,0.00,VWS V14.00,2013-05-17 09:53:00,
2013-05-17 05:54:00,56.3,15.8,29.94,NE,45,0.0,0.0,20,0.00,,---,0.00,VWS V14.00,2013-05-17 09:54:00,
2013-05-17 05:56:00,56.3,15.8,29.94,NE,45,0.0,0.0,20,0.00,,---,0.00,VWS V14.00,2013-05-17 09:56:00,
2013-05-17 06:01:00,56.1,15.6,29.94,West,270,1.3,1.3,20,0.00,,---,0.00,VWS V14.00,2013-05-17 10:01:00,
2013-05-17 06:02:00,56.1,15.6,29.94,West,270,1.6,1.6,20,0.00,,---,0.00,VWS V14.00,2013-05-17 10:02:00,
2013-05-17 06:03:00,56.1,15.6,29.94,West,270,0.0,1.6,20,0.00,,---,0.00,VWS V14.00,2013-05-17 10:03:00,
2013-05-17 06:06:00,56.1,15.6,29.97,West,270,0.0,0.0,20,0.00,,---,0.00,VWS V14.00,2013-05-17 10:06:00,
2013-05-17 06:07:00,55.9,15.5,29.97,West,270,0.0,0.0,20,0.00,,---,0.00,VWS V14.00,2013-05-17 10:07:00,
2013-05-17 06:08:00,55.9,15.5,29.97,West,270,0.0,0.0,20,0.00,,---,0.00,VWS V14.00,2013-05-17 10:08:00,
2013-05-17 06:13:00,56.1,17.8,29.97,West,270,0.0,0.0,22,0.00,,---,0.00,VWS V14.00,2013-05-17 10:13:00,
2013-05-17 06:16:00,56.5,18.1,29.97,West,270,2.5,2.9,22,0.00,,---,0.00,VWS V14.00,2013-05-17 10:16:00,
2013-05-17 06:17:00,56.5,18.1,29.97,West,270,2.5,2.7,22,0.00,,---,0.00,VWS V14.00,2013-05-17 10:17:00,
2013-05-17 06:18:00,56.7,18.3,29.97,West,270,2.5,3.1,22,0.00,,---,0.00,VWS V14.00,2013-05-17 10:18:00,
2013-05-17 06:21:00,56.8,18.4,29.97,West,270,1.6,3.4,22,0.00,,---,0.00,VWS V14.00,2013-05-17 10:21:00,
2013-05-17 06:24:00,57.0,18.6,29.97,West,270,0.0,1.6,22,0.00,,---,0.00,VWS V14.00,2013-05-17 10:24:00,
2013-05-17 06:27:00,57.4,18.9,29.97,West,270,2.2,2.5,22,0.00,,---,0.00,VWS V14.00,2013-05-17 10:27:00,
2013-05-17 06:28:00,57.6,19.0,29.97,West,270,2.2,2.7,22,0.00,,---,0.00,VWS V14.00,2013-05-17 10:28:00,
2013-05-17 06:29:00,57.6,19.0,29.97,West,270,1.3,2.7,22,0.00,,---,0.00,VWS V14.00,2013-05-17 10:29:00,
2013-05-17 06:30:00,57.7,19.2,29.97,WNW,292,0.0,2.0,22,0.00,,---,0.00,VWS V14.00,2013-05-17 10:30:00,
2013-05-17 06:31:00,57.7,19.2,29.97,WSW,248,2.7,2.7,22,0.00,,---,0.00,VWS V14.00,2013-05-17 10:31:00,
2013-05-17 06:34:00,58.1,19.5,29.97,WNW,292,2.2,3.4,22,0.00,,---,0.00,VWS V14.00,2013-05-17 10:34:00,
2013-05-17 06:36:00,58.3,19.6,29.97,West,270,1.3,2.5,22,0.00,,---,0.00,VWS V14.00,2013-05-17 10:36:00,
2013-05-17 06:37:00,58.3,19.6,29.97,West,270,3.6,3.6,22,0.00,,---,0.00,VWS V14.00,2013-05-17 10:37:00,
2013-05-17 06:38:00,58.5,19.8,29.97,WNW,292,1.6,3.6,22,0.00,,---,0.00,VWS V14.00,2013-05-17 10:38:00,
2013-05-17 06:41:00,58.6,19.9,29.97,WNW,292,2.5,2.9,22,0.00,,---,0.00,VWS V14.00,2013-05-17 10:41:00,
2013-05-17 06:43:00,58.8,20.1,29.97,WNW,292,3.1,3.1,22,0.00,,---,0.00,VWS V14.00,2013-05-17 10:43:00,
2013-05-17 06:45:00,58.8,20.1,29.97,WNW,292,1.3,1.6,22,0.00,,---,0.00,VWS V14.00,2013-05-17 10:45:00,
2013-05-17 06:46:00,59.0,20.2,29.97,WNW,292,2.5,4.0,22,0.00,,---,0.00,VWS V14.00,2013-05-17 10:46:00,
2013-05-17 06:48:00,59.4,20.5,29.97,WNW,292,2.5,2.9,22,0.00,,---,0.00,VWS V14.00,2013-05-17 10:48:00,
2013-05-17 06:51:00,60.1,21.1,29.97,NW,315,0.0,3.1,22,0.00,,---,0.00,VWS V14.00,2013-05-17 10:51:00,
2013-05-17 06:53:00,60.4,21.4,29.97,NW,315,0.0,0.0,22,0.00,,---,0.00,VWS V14.00,2013-05-17 10:53:00,
2013-05-17 06:54:00,60.8,20.6,29.97,WNW,292,2.5,2.5,21,0.00,,---,0.00,VWS V14.00,2013-05-17 10:54:00,
2013-05-17 06:56:00,61.0,20.8,29.97,West,270,2.9,3.8,21,0.00,,---,0.00,VWS V14.00,2013-05-17 10:56:00,
2013-05-17 06:57:00,61.3,21.1,29.97,WNW,292,2.5,2.9,21,0.00,,---,0.00,VWS V14.00,2013-05-17 10:57:00,
2013-05-17 06:59:00,61.7,21.4,29.97,West,270,2.9,3.8,21,0.00,,---,0.00,VWS V14.00,2013-05-17 10:59:00,
2013-05-17 07:03:00,61.9,21.5,29.97,WNW,292,3.1,3.6,21,0.00,,---,0.00,VWS V14.00,2013-05-17 11:03:00,
2013-05-17 07:04:00,61.9,21.5,29.97,NNW,338,3.4,3.8,21,0.00,,---,0.00,VWS V14.00,2013-05-17 11:04:00,
2013-05-17 07:07:00,62.2,19.5,29.97,NW,315,3.6,4.9,19,0.00,,---,0.00,VWS V14.00,2013-05-17 11:07:00,
2013-05-17 07:08:00,62.4,19.6,29.97,NNW,338,3.8,3.8,19,0.00,,---,0.00,VWS V14.00,2013-05-17 11:08:00,
2013-05-17 07:09:00,62.6,18.5,29.97,NNW,338,3.4,4.0,18,0.00,,---,0.00,VWS V14.00,2013-05-17 11:09:00,
2013-05-17 07:12:00,62.8,18.7,29.97,NNW,338,0.0,2.2,18,0.00,,---,0.00,VWS V14.00,2013-05-17 11:12:00,
2013-05-17 07:16:00,63.3,19.1,29.97,WSW,248,5.4,5.4,18,0.00,,---,0.00,VWS V14.00,2013-05-17 11:16:00,
2013-05-17 07:18:00,63.3,19.1,29.97,WNW,292,2.7,3.8,18,0.00,,---,0.00,VWS V14.00,2013-05-17 11:18:00,
2013-05-17 07:19:00,63.3,19.1,30.00,NW,315,2.2,5.6,18,0.00,,---,0.00,VWS V14.00,2013-05-17 11:19:00,
2013-05-17 07:20:00,63.5,19.3,30.00,NW,315,0.0,2.2,18,0.00,,---,0.00,VWS V14.00,2013-05-17 11:20:00,
2013-05-17 07:24:00,64.0,19.7,30.00,NW,315,1.1,3.1,18,0.00,,---,0.00,VWS V14.00,2013-05-17 11:24:00,
2013-05-17 07:25:00,64.2,19.9,30.00,NNW,338,3.6,4.9,18,0.00,,---,0.00,VWS V14.00,2013-05-17 11:25:00,
2013-05-17 07:26:00,64.4,20.0,30.00,NW,315,0.9,3.6,18,0.00,,---,0.00,VWS V14.00,2013-05-17 11:26:00,
2013-05-17 07:27:00,64.8,20.3,30.00,NNW,338,2.5,5.4,18,0.00,,---,0.00,VWS V14.00,2013-05-17 11:27:00,
2013-05-17 07:28:00,64.8,20.3,30.00,NNW,338,2.9,3.8,18,0.00,,---,0.00,VWS V14.00,2013-05-17 11:28:00,
2013-05-17 07:32:00,65.1,20.6,30.00,WNW,292,2.9,4.3,18,0.00,,---,0.00,VWS V14.00,2013-05-17 11:32:00,
2013-05-17 07:34:00,65.1,20.6,30.00,NNW,338,1.3,4.9,18,0.00,,---,0.00,VWS V14.00,2013-05-17 11:34:00,
2013-05-17 07:35:00,65.5,20.9,30.00,NW,315,2.5,3.6,18,0.00,,---,0.00,VWS V14.00,2013-05-17 11:35:00,
2013-05-17 07:37:00,65.7,21.0,30.00,NNW,338,2.5,3.8,18,0.00,,---,0.00,VWS V14.00,2013-05-17 11:37:00,
2013-05-17 07:39:00,65.7,21.0,30.00,NNW,338,2.5,3.6,18,0.00,,---,0.00,VWS V14.00,2013-05-17 11:39:00,
2013-05-17 07:40:00,65.7,21.0,30.00,NNE,22,3.6,4.7,18,0.00,,---,0.00,VWS V14.00,2013-05-17 11:40:00,
2013-05-17 07:42:00,65.7,21.0,30.00,NNW,338,5.4,5.4,18,0.00,,---,0.00,VWS V14.00,2013-05-17 11:42:00,
2013-05-17 07:46:00,66.0,21.3,30.00,NNW,338,2.2,3.1,18,0.00,,---,0.00,VWS V14.00,2013-05-17 11:46:00,
2013-05-17 07:49:00,66.4,20.3,30.03,North,0,2.9,4.9,17,0.00,,---,0.00,VWS V14.00,2013-05-17 11:49:00,
2013-05-17 07:50:00,66.4,20.3,30.03,NNE,22,4.3,4.3,17,0.00,,---,0.00,VWS V14.00,2013-05-17 11:50:00,
2013-05-17 07:51:00,66.4,20.3,30.03,North,0,6.0,7.4,17,0.00,,---,0.00,VWS V14.00,2013-05-17 11:51:00,
2013-05-17 07:53:00,66.6,20.4,30.03,North,0,3.6,5.4,17,0.00,,---,0.00,VWS V14.00,2013-05-17 11:53:00,
2013-05-17 07:55:00,66.6,20.4,30.03,NNW,338,3.6,6.0,17,0.00,,---,0.00,VWS V14.00,2013-05-17 11:55:00,
2013-05-17 07:58:00,66.6,20.4,30.03,NNW,338,4.9,7.6,17,0.00,,---,0.00,VWS V14.00,2013-05-17 11:58:00,
2013-05-17 08:01:00,66.7,20.6,30.03,North,0,2.7,4.0,17,0.00,,---,0.00,VWS V14.00,2013-05-17 12:01:00,
2013-05-17 08:03:00,67.1,20.9,30.03,NNE,22,3.4,3.4,17,0.00,,---,0.00,VWS V14.00,2013-05-17 12:03:00,
2013-05-17 08:04:00,67.1,20.9,30.03,NE,45,2.7,4.3,17,0.00,,---,0.00,VWS V14.00,2013-05-17 12:04:00,
2013-05-17 08:06:00,67.3,21.0,30.03,NE,45,3.4,5.8,17,0.00,,---,0.00,VWS V14.00,2013-05-17 12:06:00,
2013-05-17 08:08:00,67.5,21.2,30.03,NW,315,3.4,5.4,17,0.00,,---,0.00,VWS V14.00,2013-05-17 12:08:00,
2013-05-17 08:09:00,67.5,21.2,30.03,NW,315,4.9,4.9,17,0.00,,---,0.00,VWS V14.00,2013-05-17 12:09:00,
2013-05-17 08:10:00,67.1,20.9,30.03,NNW,338,3.1,7.6,17,0.00,,---,0.00,VWS V14.00,2013-05-17 12:10:00,
2013-05-17 08:14:00,67.5,21.2,30.03,NNW,338,2.7,4.0,17,0.00,,---,0.00,VWS V14.00,2013-05-17 12:14:00,
2013-05-17 08:15:00,67.6,21.3,30.03,North,0,3.1,3.1,17,0.00,,---,0.00,VWS V14.00,2013-05-17 12:15:00,
2013-05-17 08:16:00,67.6,21.3,30.03,WNW,292,3.1,9.6,17,0.00,,---,0.00,VWS V14.00,2013-05-17 12:16:00,
2013-05-17 08:21:00,67.6,21.3,30.03,NNW,338,4.9,6.0,17,0.00,,---,0.00,VWS V14.00,2013-05-17 12:21:00,
2013-05-17 08:22:00,67.5,21.2,30.03,NNW,338,6.5,6.5,17,0.00,,---,0.00,VWS V14.00,2013-05-17 12:22:00,
2013-05-17 08:25:00,67.8,21.5,30.03,North,0,7.6,10.1,17,0.00,,---,0.00,VWS V14.00,2013-05-17 12:25:00,
2013-05-17 08:26:00,67.8,21.5,30.03,NNE,22,3.4,7.6,17,0.00,,---,0.00,VWS V14.00,2013-05-17 12:26:00,
2013-05-17 08:28:00,67.8,21.5,30.03,North,0,4.9,8.7,17,0.00,,---,0.00,VWS V14.00,2013-05-17 12:28:00,
2013-05-17 08:31:00,67.8,21.5,30.03,NNW,338,3.6,5.8,17,0.00,,---,0.00,VWS V14.00,2013-05-17 12:31:00,
2013-05-17 08:32:00,68.0,21.6,30.03,NNW,338,3.1,6.0,17,0.00,,---,0.00,VWS V14.00,2013-05-17 12:32:00,
2013-05-17 08:34:00,68.2,21.7,30.00,NNW,338,6.0,6.3,17,0.00,,---,0.00,VWS V14.00,2013-05-17 12:34:00,
2013-05-17 08:35:00,68.4,21.9,30.00,NNE,22,6.5,6.5,17,0.00,,---,0.00,VWS V14.00,2013-05-17 12:35:00,
2013-05-17 08:36:00,68.5,22.0,30.00,NNE,22,3.1,6.5,17,0.00,,---,0.00,VWS V14.00,2013-05-17 12:36:00,
2013-05-17 08:39:00,68.7,22.2,30.00,North,0,4.3,5.6,17,0.00,,---,0.00,VWS V14.00,2013-05-17 12:39:00,
2013-05-17 08:41:00,68.7,22.2,30.00,NNE,22,1.3,8.1,17,0.00,,---,0.00,VWS V14.00,2013-05-17 12:41:00,
2013-05-17 08:42:00,68.9,22.3,30.00,North,0,6.0,6.0,17,0.00,,---,0.00,VWS V14.00,2013-05-17 12:42:00,
2013-05-17 08:44:00,69.4,22.8,30.00,NW,315,2.2,4.7,17,0.00,,---,0.00,VWS V14.00,2013-05-17 12:44:00,
2013-05-17 08:47:00,69.6,22.9,30.00,NNW,338,4.3,4.3,17,0.00,,---,0.00,VWS V14.00,2013-05-17 12:47:00,
2013-05-17 08:48:00,69.6,22.9,30.00,NNW,338,4.3,4.3,17,0.00,,---,0.00,VWS V14.00,2013-05-17 12:48:00,
2013-05-17 08:49:00,69.6,22.9,30.03,NW,315,3.1,6.5,17,0.00,,---,0.00,VWS V14.00,2013-05-17 12:49:00,
2013-05-17 08:51:00,69.4,22.8,30.03,NNW,338,3.1,6.3,17,0.00,,---,0.00,VWS V14.00,2013-05-17 12:51:00,
2013-05-17 08:53:00,69.6,22.9,30.03,NNW,338,4.9,5.4,17,0.00,,---,0.00,VWS V14.00,2013-05-17 12:53:00,
2013-05-17 08:54:00,69.6,22.9,30.03,North,0,5.4,6.5,17,0.00,,---,0.00,VWS V14.00,2013-05-17 12:54:00,
2013-05-17 08:55:00,69.8,23.1,30.03,NNW,338,3.1,5.6,17,0.00,,---,0.00,VWS V14.00,2013-05-17 12:55:00,
2013-05-17 08:59:00,70.2,23.4,30.03,NNE,22,4.3,5.6,17,0.00,,---,0.00,VWS V14.00,2013-05-17 12:59:00,
2013-05-17 09:01:00,70.5,23.6,30.03,North,0,3.4,4.0,17,0.00,,---,0.00,VWS V14.00,2013-05-17 13:01:00,
2013-05-17 09:03:00,70.0,23.2,30.03,NNW,338,6.3,8.5,17,0.00,,---,0.00,VWS V14.00,2013-05-17 13:03:00,
2013-05-17 09:06:00,70.0,23.2,30.03,North,0,4.3,5.4,17,0.00,,---,0.00,VWS V14.00,2013-05-17 13:06:00,
2013-05-17 09:09:00,70.2,23.4,30.03,North,0,1.6,5.4,17,0.00,,---,0.00,VWS V14.00,2013-05-17 13:09:00,
2013-05-17 09:11:00,70.5,23.6,30.03,NW,315,2.5,4.7,17,0.00,,---,0.00,VWS V14.00,2013-05-17 13:11:00,
2013-05-17 09:13:00,70.7,23.8,30.03,WNW,292,2.0,5.4,17,0.00,,---,0.00,VWS V14.00,2013-05-17 13:13:00,
2013-05-17 09:15:00,71.1,24.1,30.03,NNW,338,3.4,4.0,17,0.00,,---,0.00,VWS V14.00,2013-05-17 13:15:00,
2013-05-17 09:16:00,71.1,24.1,30.03,NE,45,4.9,4.9,17,0.00,,---,0.00,VWS V14.00,2013-05-17 13:16:00,
2013-05-17 09:19:00,71.6,23.1,30.03,NNW,338,0.0,3.1,16,0.00,,---,0.00,VWS V14.00,2013-05-17 13:19:00,
2013-05-17 09:20:00,71.6,23.1,30.03,North,0,2.7,4.7,16,0.00,,---,0.00,VWS V14.00,2013-05-17 13:20:00,
2013-05-17 09:21:00,72.0,23.4,30.03,NNE,22,2.5,4.0,16,0.00,,---,0.00,VWS V14.00,2013-05-17 13:21:00,
2013-05-17 09:22:00,72.0,23.4,30.03,NNE,22,3.6,3.6,16,0.00,,---,0.00,VWS V14.00,2013-05-17 13:22:00,
2013-05-17 09:24:00,72.1,23.5,30.03,NNW,338,3.1,3.1,16,0.00,,---,0.00,VWS V14.00,2013-05-17 13:24:00,
2013-05-17 09:25:00,72.3,23.6,30.03,NNW,338,1.3,3.1,16,0.00,,---,0.00,VWS V14.00,2013-05-17 13:25:00,
2013-05-17 09:27:00,72.5,23.8,30.03,North,0,2.7,4.3,16,0.00,,---,0.00,VWS V14.00,2013-05-17 13:27:00,
2013-05-17 09:30:00,72.9,24.1,30.03,NNW,338,6.0,6.0,16,0.00,,---,0.00,VWS V14.00,2013-05-17 13:30:00,
2013-05-17 09:31:00,72.9,24.1,30.03,North,0,3.8,6.0,16,0.00,,---,0.00,VWS V14.00,2013-05-17 13:31:00,
2013-05-17 09:33:00,72.7,23.9,30.03,NNE,22,3.4,4.0,16,0.00,,---,0.00,VWS V14.00,2013-05-17 13:33:00,
2013-05-17 09:34:00,72.3,23.6,30.03,NNE,22,2.9,5.6,16,0.00,,---,0.00,VWS V14.00,2013-05-17 13:34:00,
2013-05-17 09:36:00,72.5,23.8,30.03,North,0,4.0,4.9,16,0.00,,---,0.00,VWS V14.00,2013-05-17 13:36:00,
2013-05-17 09:39:00,72.9,24.1,30.03,NNW,338,4.3,4.3,16,0.00,,---,0.00,VWS V14.00,2013-05-17 13:39:00,
2013-05-17 09:40:00,72.7,23.9,30.03,North,0,3.6,4.7,16,0.00,,---,0.00,VWS V14.00,2013-05-17 13:40:00,
2013-05-17 09:43:00,72.7,23.9,30.03,NW,315,1.1,2.7,16,0.00,,---,0.00,VWS V14.00,2013-05-17 13:43:00,
2013-05-17 09:44:00,73.0,24.2,30.03,North,0,5.6,5.6,16,0.00,,---,0.00,VWS V14.00,2013-05-17 13:44:00,
2013-05-17 09:45:00,73.0,24.2,30.03,NNW,338,3.6,5.6,16,0.00,,---,0.00,VWS V14.00,2013-05-17 13:45:00,
2013-05-17 09:46:00,73.0,24.2,30.03,NNW,338,5.4,5.4,16,0.00,,---,0.00,VWS V14.00,2013-05-17 13:46:00,
2013-05-17 09:49:00,73.0,24.2,30.03,NW,315,4.9,5.8,16,0.00,,---,0.00,VWS V14.00,2013-05-17 13:49:00,
2013-05-17 09:50:00,72.9,24.1,30.03,WNW,292,3.6,4.9,16,0.00,,---,0.00,VWS V14.00,2013-05-17 13:50:00,
2013-05-17 09:53:00,73.6,24.7,30.03,ENE,68,3.6,4.9,16,0.00,,---,0.00,VWS V14.00,2013-05-17 13:53:00,
2013-05-17 09:54:00,73.6,24.7,30.03,NE,45,4.7,5.6,16,0.00,,---,0.00,VWS V14.00,2013-05-17 13:54:00,
2013-05-17 09:55:00,73.6,24.7,30.03,NNE,22,3.6,4.9,16,0.00,,---,0.00,VWS V14.00,2013-05-17 13:55:00,
2013-05-17 09:56:00,73.6,24.7,30.03,North,0,3.1,4.3,16,0.00,,---,0.00,VWS V14.00,2013-05-17 13:56:00,
2013-05-17 10:00:00,73.9,25.0,30.03,NNE,22,2.9,2.9,16,0.00,,---,0.00,VWS V14.00,2013-05-17 14:00:00,
2013-05-17 10:01:00,73.9,25.0,30.03,North,0,4.0,5.4,16,0.00,,---,0.00,VWS V14.00,2013-05-17 14:01:00,
2013-05-17 10:03:00,73.8,24.8,30.03,North,0,4.0,4.0,16,0.00,,---,0.00,VWS V14.00,2013-05-17 14:03:00,
2013-05-17 10:04:00,73.8,24.8,30.06,NNE,22,4.3,5.6,16,0.00,,---,0.00,VWS V14.00,2013-05-17 14:04:00,
2013-05-17 10:05:00,73.8,24.8,30.06,NNE,22,5.6,6.0,16,0.00,,---,0.00,VWS V14.00,2013-05-17 14:05:00,
2013-05-17 10:10:00,72.7,23.9,30.06,NNE,22,6.5,6.7,16,0.00,,---,0.00,VWS V14.00,2013-05-17 14:10:00,
2013-05-17 10:11:00,72.5,23.8,30.06,North,0,3.8,6.5,16,0.00,,---,0.00,VWS V14.00,2013-05-17 14:11:00,
2013-05-17 10:13:00,72.3,23.6,30.06,NW,315,5.8,8.7,16,0.00,,---,0.00,VWS V14.00,2013-05-17 14:13:00,
2013-05-17 10:14:00,72.0,23.4,30.06,NNW,338,5.8,6.3,16,0.00,,---,0.00,VWS V14.00,2013-05-17 14:14:00,
2013-05-17 10:17:00,73.0,24.2,30.06,NNE,22,3.6,4.9,16,0.00,,---,0.00,VWS V14.00,2013-05-17 14:17:00,
2013-05-17 10:19:00,72.9,24.1,30.03,NNE,22,5.6,7.8,16,0.00,,---,0.00,VWS V14.00,2013-05-17 14:19:00,
2013-05-17 10:22:00,73.0,24.2,30.03,NNE,22,6.5,6.5,16,0.00,,---,0.00,VWS V14.00,2013-05-17 14:22:00,
2013-05-17 10:24:00,73.0,24.2,30.03,NE,45,4.3,4.7,16,0.00,,---,0.00,VWS V14.00,2013-05-17 14:24:00,
2013-05-17 10:25:00,73.8,24.8,30.03,NNW,338,2.5,4.3,16,0.00,,---,0.00,VWS V14.00,2013-05-17 14:25:00,
2013-05-17 10:27:00,74.3,25.2,30.03,NNE,22,4.0,4.0,16,0.00,,---,0.00,VWS V14.00,2013-05-17 14:27:00,
2013-05-17 10:29:00,73.8,24.8,30.03,NNE,22,6.5,6.5,16,0.00,,---,0.00,VWS V14.00,2013-05-17 14:29:00,
2013-05-17 10:31:00,73.8,24.8,30.03,NNE,22,4.0,5.8,16,0.00,,---,0.00,VWS V14.00,2013-05-17 14:31:00,
2013-05-17 10:33:00,73.6,24.7,30.03,NE,45,3.6,5.8,16,0.00,,---,0.00,VWS V14.00,2013-05-17 14:33:00,
2013-05-17 10:35:00,73.2,24.4,30.06,NNE,22,6.5,6.5,16,0.00,,---,0.00,VWS V14.00,2013-05-17 14:35:00,
2013-05-17 10:36:00,73.0,24.2,30.06,NNE,22,3.6,6.5,16,0.00,,---,0.00,VWS V14.00,2013-05-17 14:36:00,
2013-05-17 10:37:00,73.4,24.5,30.06,NNW,338,4.0,7.4,16,0.00,,---,0.00,VWS V14.00,2013-05-17 14:37:00,
2013-05-17 10:38:00,73.8,24.8,30.06,NNE,22,2.0,5.4,16,0.00,,---,0.00,VWS V14.00,2013-05-17 14:38:00,
2013-05-17 10:39:00,73.6,24.7,30.06,North,0,6.0,6.0,16,0.00,,---,0.00,VWS V14.00,2013-05-17 14:39:00,
2013-05-17 10:42:00,73.4,24.5,30.06,WNW,292,7.6,8.7,16,0.00,,---,0.00,VWS V14.00,2013-05-17 14:42:00,
2013-05-17 10:44:00,73.6,24.7,30.06,North,0,6.0,6.0,16,0.00,,---,0.00,VWS V14.00,2013-05-17 14:44:00,
2013-05-17 10:45:00,73.9,25.0,30.06,NNW,338,4.9,6.0,16,0.00,,---,0.00,VWS V14.00,2013-05-17 14:45:00,
2013-05-17 10:46:00,73.9,25.0,30.06,NW,315,4.7,5.8,16,0.00,,---,0.00,VWS V14.00,2013-05-17 14:46:00,
2013-05-17 10:48:00,73.8,24.8,30.06,NNE,22,4.9,4.9,16,0.00,,---,0.00,VWS V14.00,2013-05-17 14:48:00,
2013-05-17 10:52:00,73.4,24.5,30.06,WNW,292,4.0,7.2,16,0.00,,---,0.00,VWS V14.00,2013-05-17 14:52:00,
2013-05-17 10:54:00,73.4,24.5,30.06,NNW,338,5.6,8.5,16,0.00,,---,0.00,VWS V14.00,2013-05-17 14:54:00,
2013-05-17 10:55:00,73.8,24.8,30.06,NNE,22,6.9,7.2,16,0.00,,---,0.00,VWS V14.00,2013-05-17 14:55:00,
2013-05-17 10:57:00,73.8,24.8,30.06,NW,315,7.2,7.2,16,0.00,,---,0.00,VWS V14.00,2013-05-17 14:57:00,
2013-05-17 10:58:00,73.8,24.8,30.06,NNW,338,6.0,7.2,16,0.00,,---,0.00,VWS V14.00,2013-05-17 14:58:00,
2013-05-17 10:59:00,74.5,25.4,30.06,North,0,3.1,6.0,16,0.00,,---,0.00,VWS V14.00,2013-05-17 14:59:00,
2013-05-17 11:00:00,74.5,25.4,30.06,NNE,22,2.7,5.8,16,0.00,,---,0.00,VWS V14.00,2013-05-17 15:00:00,
2013-05-17 11:03:00,74.3,25.2,30.06,NNE,22,3.4,4.0,16,0.00,,---,0.00,VWS V14.00,2013-05-17 15:03:00,
2013-05-17 11:04:00,74.5,25.4,30.06,North,0,7.6,7.6,16,0.00,,---,0.00,VWS V14.00,2013-05-17 15:04:00,
2013-05-17 11:06:00,74.3,25.2,30.06,WNW,292,5.8,6.7,16,0.00,,---,0.00,VWS V14.00,2013-05-17 15:06:00,
2013-05-17 11:07:00,74.7,25.5,30.06,NW,315,4.3,6.5,16,0.00,,---,0.00,VWS V14.00,2013-05-17 15:07:00,
2013-05-17 11:09:00,74.8,25.7,30.06,WNW,292,6.0,9.6,16,0.00,,---,0.00,VWS V14.00,2013-05-17 15:09:00,
2013-05-17 11:10:00,74.3,25.2,30.06,SE,135,2.5,6.0,16,0.00,,---,0.00,VWS V14.00,2013-05-17 15:10:00,
2013-05-17 11:12:00,75.2,24.4,30.06,North,0,5.4,5.4,15,0.00,,---,0.00,VWS V14.00,2013-05-17 15:12:00,
2013-05-17 11:13:00,75.2,24.4,30.06,NNW,338,6.3,8.7,15,0.00,,---,0.00,VWS V14.00,2013-05-17 15:13:00,
2013-05-17 11:16:00,75.2,24.4,30.06,NNW,338,6.3,7.2,15,0.00,,---,0.00,VWS V14.00,2013-05-17 15:16:00,
2013-05-17 11:17:00,75.4,24.6,30.06,NNW,338,4.0,7.6,15,0.00,,---,0.00,VWS V14.00,2013-05-17 15:17:00,
2013-05-17 11:18:00,75.0,25.8,30.06,WNW,292,10.1,10.1,16,0.00,,---,0.00,VWS V14.00,2013-05-17 15:18:00,
2013-05-17 11:23:00,75.2,24.4,30.06,West,270,5.8,5.8,15,0.00,,---,0.00,VWS V14.00,2013-05-17 15:23:00,
2013-05-17 11:26:00,75.7,24.9,30.06,NW,315,4.0,5.6,15,0.00,,---,0.00,VWS V14.00,2013-05-17 15:26:00,
2013-05-17 11:28:00,76.3,25.3,30.06,NNW,338,4.3,5.6,15,0.00,,---,0.00,VWS V14.00,2013-05-17 15:28:00,
2013-05-17 11:30:00,76.6,25.6,30.06,NE,45,2.7,3.8,15,0.00,,---,0.00,VWS V14.00,2013-05-17 15:30:00,
2013-05-17 11:31:00,77.0,25.9,30.06,NNE,22,4.3,4.3,15,0.00,,---,0.00,VWS V14.00,2013-05-17 15:31:00,
2013-05-17 11:32:00,77.2,26.0,30.06,NNW,338,2.5,4.3,15,0.00,,---,0.00,VWS V14.00,2013-05-17 15:32:00,
2013-05-17 11:35:00,77.5,26.3,30.06,North,0,0.9,5.6,15,0.00,,---,0.00,VWS V14.00,2013-05-17 15:35:00,
2013-05-17 11:36:00,78.1,26.7,30.06,WNW,292,5.8,5.8,15,0.00,,---,0.00,VWS V14.00,2013-05-17 15:36:00,
2013-05-17 11:39:00,77.5,26.3,30.06,NNE,22,1.6,3.8,15,0.00,,---,0.00,VWS V14.00,2013-05-17 15:39:00,
2013-05-17 11:40:00,77.9,26.6,30.06,WNW,292,0.9,2.9,15,0.00,,---,0.00,VWS V14.00,2013-05-17 15:40:00,
2013-05-17 11:42:00,78.3,26.9,30.06,WNW,292,5.6,5.6,15,0.00,,---,0.00,VWS V14.00,2013-05-17 15:42:00,
2013-05-17 11:44:00,78.4,27.0,30.06,NNW,338,2.7,3.1,15,0.00,,---,0.00,VWS V14.00,2013-05-17 15:44:00,
2013-05-17 11:46:00,77.4,26.1,30.06,WNW,292,2.9,4.0,15,0.00,,---,0.00,VWS V14.00,2013-05-17 15:46:00,
2013-05-17 11:47:00,77.4,26.1,30.06,NNW,338,4.3,9.2,15,0.00,,---,0.00,VWS V14.00,2013-05-17 15:47:00,
2013-05-17 11:48:00,77.2,26.0,30.06,NNW,338,10.3,10.3,15,0.00,,---,0.00,VWS V14.00,2013-05-17 15:48:00,
2013-05-17 11:49:00,76.6,25.6,30.06,WNW,292,6.0,10.3,15,0.00,,---,0.00,VWS V14.00,2013-05-17 15:49:00,
2013-05-17 11:52:00,76.3,25.3,30.06,North,0,3.8,7.4,15,0.00,,---,0.00,VWS V14.00,2013-05-17 15:52:00,
2013-05-17 11:55:00,76.6,25.6,30.06,WNW,292,5.4,6.3,15,0.00,,---,0.00,VWS V14.00,2013-05-17 15:55:00,
2013-05-17 11:56:00,76.8,25.7,30.06,North,0,2.7,5.8,15,0.00,,---,0.00,VWS V14.00,2013-05-17 15:56:00,
2013-05-17 11:57:00,76.8,25.7,30.06,NW,315,6.3,6.3,15,0.00,,---,0.00,VWS V14.00,2013-05-17 15:57:00,
2013-05-17 11:58:00,76.8,25.7,30.06,North,0,6.9,6.9,15,0.00,,---,0.00,VWS V14.00,2013-05-17 15:58:00,
2013-05-17 12:01:00,77.4,26.1,30.06,NNE,22,2.5,6.0,15,0.00,,---,0.00,VWS V14.00,2013-05-17 16:01:00,
2013-05-17 12:02:00,76.6,25.6,30.06,NNW,338,5.6,10.1,15,0.00,,---,0.00,VWS V14.00,2013-05-17 16:02:00,
2013-05-17 12:05:00,76.8,25.7,30.06,WNW,292,2.5,5.4,15,0.00,,---,0.00,VWS V14.00,2013-05-17 16:05:00,
2013-05-17 12:08:00,77.2,26.0,30.06,WNW,292,1.6,6.3,15,0.00,,---,0.00,VWS V14.00,2013-05-17 16:08:00,
2013-05-17 12:10:00,75.9,25.0,30.06,WNW,292,8.5,8.5,15,0.00,,---,0.00,VWS V14.00,2013-05-17 16:10:00,
2013-05-17 12:12:00,75.9,25.0,30.06,NNW,338,1.6,6.3,15,0.00,,---,0.00,VWS V14.00,2013-05-17 16:12:00,
2013-05-17 12:14:00,76.6,25.6,30.06,NW,315,6.3,7.6,15,0.00,,---,0.00,VWS V14.00,2013-05-17 16:14:00,
2013-05-17 12:16:00,76.1,25.1,30.06,West,270,8.1,8.1,15,0.00,,---,0.00,VWS V14.00,2013-05-17 16:16:00,
2013-05-17 12:17:00,75.9,25.0,30.06,West,270,7.2,8.1,15,0.00,,---,0.00,VWS V14.00,2013-05-17 16:17:00,
2013-05-17 12:18:00,76.1,25.1,30.06,West,270,3.1,7.2,15,0.00,,---,0.00,VWS V14.00,2013-05-17 16:18:00,
2013-05-17 12:20:00,76.6,25.6,30.06,NNW,338,3.8,3.8,15,0.00,,---,0.00,VWS V14.00,2013-05-17 16:20:00,
2013-05-17 12:21:00,77.0,25.9,30.06,WNW,292,2.5,3.8,15,0.00,,---,0.00,VWS V14.00,2013-05-17 16:21:00,
2013-05-17 12:23:00,77.5,26.3,30.06,NNW,338,3.6,5.4,15,0.00,,---,0.00,VWS V14.00,2013-05-17 16:23:00,
2013-05-17 12:24:00,77.0,25.9,30.06,North,0,5.8,10.1,15,0.00,,---,0.00,VWS V14.00,2013-05-17 16:24:00,
2013-05-17 12:27:00,77.2,26.0,30.06,West,270,5.8,5.8,15,0.00,,---,0.00,VWS V14.00,2013-05-17 16:27:00,
2013-05-17 12:29:00,76.6,25.6,30.06,NNW,338,3.6,6.3,15,0.00,,---,0.00,VWS V14.00,2013-05-17 16:29:00,
2013-05-17 12:30:00,76.1,25.1,30.06,NW,315,6.3,6.3,15,0.00,,---,0.00,VWS V14.00,2013-05-17 16:30:00,
2013-05-17 12:31:00,75.9,25.0,30.06,NNE,22,4.9,6.7,15,0.00,,---,0.00,VWS V14.00,2013-05-17 16:31:00,
2013-05-17 12:32:00,76.1,25.1,30.06,NNW,338,3.8,6.0,15,0.00,,---,0.00,VWS V14.00,2013-05-17 16:32:00,
2013-05-17 12:33:00,76.3,25.3,30.06,NW,315,5.6,5.6,15,0.00,,---,0.00,VWS V14.00,2013-05-17 16:33:00,
2013-05-17 12:35:00,76.1,25.1,30.06,WNW,292,1.3,6.3,15,0.00,,---,0.00,VWS V14.00,2013-05-17 16:35:00,
2013-05-17 12:36:00,76.5,25.4,30.06,NNE,22,5.8,5.8,15,0.00,,---,0.00,VWS V14.00,2013-05-17 16:36:00,
2013-05-17 12:37:00,76.5,25.4,30.06,WNW,292,5.6,5.8,15,0.00,,---,0.00,VWS V14.00,2013-05-17 16:37:00,
2013-05-17 12:38:00,76.1,25.1,30.06,NNW,338,2.5,5.6,15,0.00,,---,0.00,VWS V14.00,2013-05-17 16:38:00,
2013-05-17 12:40:00,76.8,25.7,30.06,SSW,202,5.6,5.6,15,0.00,,---,0.00,VWS V14.00,2013-05-17 16:40:00,
2013-05-17 12:41:00,76.3,25.3,30.06,WNW,292,5.4,6.5,15,0.00,,---,0.00,VWS V14.00,2013-05-17 16:41:00,
2013-05-17 12:42:00,76.5,25.4,30.06,West,270,4.3,6.0,15,0.00,,---,0.00,VWS V14.00,2013-05-17 16:42:00,
2013-05-17 12:46:00,76.6,25.6,30.06,North,0,4.9,7.2,15,0.00,,---,0.00,VWS V14.00,2013-05-17 16:46:00,
2013-05-17 12:47:00,76.3,25.3,30.06,NNE,22,3.6,7.4,15,0.00,,---,0.00,VWS V14.00,2013-05-17 16:47:00,
2013-05-17 12:48:00,76.3,25.3,30.06,NNW,338,5.8,7.2,15,0.00,,---,0.00,VWS V14.00,2013-05-17 16:48:00,
2013-05-17 12:51:00,76.5,25.4,30.06,West,270,4.3,4.7,15,0.00,,---,0.00,VWS V14.00,2013-05-17 16:51:00,
2013-05-17 12:53:00,76.6,25.6,30.06,NW,315,3.8,4.0,15,0.00,,---,0.00,VWS V14.00,2013-05-17 16:53:00,
2013-05-17 12:55:00,75.9,25.0,30.06,WSW,248,10.5,10.5,15,0.00,,---,0.00,VWS V14.00,2013-05-17 16:55:00,
2013-05-17 12:56:00,75.6,24.7,30.06,WNW,292,5.4,10.5,15,0.00,,---,0.00,VWS V14.00,2013-05-17 16:56:00,
2013-05-17 12:59:00,75.6,24.7,30.06,NNW,338,4.3,7.4,15,0.00,,---,0.00,VWS V14.00,2013-05-17 16:59:00,
2013-05-17 13:01:00,76.6,25.6,30.06,WSW,248,3.4,4.9,15,0.00,,---,0.00,VWS V14.00,2013-05-17 17:01:00,
2013-05-17 13:02:00,77.0,25.9,30.06,WNW,292,5.4,5.4,15,0.00,,---,0.00,VWS V14.00,2013-05-17 17:02:00,
2013-05-17 13:03:00,76.5,25.4,30.06,NNE,22,8.7,8.7,15,0.00,,---,0.00,VWS V14.00,2013-05-17 17:03:00,
2013-05-17 13:05:00,76.1,25.1,30.06,NNE,22,3.4,5.8,15,0.00,,---,0.00,VWS V14.00,2013-05-17 17:05:00,
2013-05-17 13:08:00,75.9,25.0,30.06,WNW,292,7.6,10.7,15,0.00,,---,0.00,VWS V14.00,2013-05-17 17:08:00,
2013-05-17 13:12:00,76.1,25.1,30.06,WNW,292,3.4,4.3,15,0.00,,---,0.00,VWS V14.00,2013-05-17 17:12:00,
2013-05-17 13:13:00,76.3,25.3,30.06,WNW,292,3.8,6.0,15,0.00,,---,0.00,VWS V14.00,2013-05-17 17:13:00,
2013-05-17 13:14:00,76.1,25.1,30.06,SW,225,0.9,9.8,15,0.00,,---,0.00,VWS V14.00,2013-05-17 17:14:00,
2013-05-17 13:15:00,76.5,25.4,30.06,WNW,292,3.8,5.6,15,0.00,,---,0.00,VWS V14.00,2013-05-17 17:15:00,
2013-05-17 13:18:00,76.8,25.7,30.06,WNW,292,3.8,6.7,15,0.00,,---,0.00,VWS V14.00,2013-05-17 17:18:00,
2013-05-17 13:20:00,77.2,26.0,30.09,WNW,292,2.9,4.9,15,0.00,,---,0.00,VWS V14.00,2013-05-17 17:20:00,
2013-05-17 13:22:00,77.0,25.9,30.09,NW,315,4.9,5.6,15,0.00,,---,0.00,VWS V14.00,2013-05-17 17:22:00,
2013-05-17 13:23:00,76.8,25.7,30.09,NW,315,5.8,7.4,15,0.00,,---,0.00,VWS V14.00,2013-05-17 17:23:00,
2013-05-17 13:25:00,76.6,25.6,30.09,NNW,338,3.6,9.6,15,0.00,,---,0.00,VWS V14.00,2013-05-17 17:25:00,
2013-05-17 13:26:00,76.6,25.6,30.09,NNE,22,5.4,5.4,15,0.00,,---,0.00,VWS V14.00,2013-05-17 17:26:00,
2013-05-17 13:29:00,77.4,26.1,30.09,North,0,1.1,4.0,15,0.00,,---,0.00,VWS V14.00,2013-05-17 17:29:00,
2013-05-17 13:30:00,77.2,26.0,30.09,NNE,22,3.4,6.5,15,0.00,,---,0.00,VWS V14.00,2013-05-17 17:30:00,
2013-05-17 13:31:00,77.5,26.3,30.09,NNE,22,2.9,5.8,15,0.00,,---,0.00,VWS V14.00,2013-05-17 17:31:00,
2013-05-17 13:33:00,76.8,25.7,30.09,NNW,338,6.5,8.5,15,0.00,,---,0.00,VWS V14.00,2013-05-17 17:33:00,
2013-05-17 13:35:00,77.4,26.1,30.06,NNW,338,2.5,2.9,15,0.00,,---,0.00,VWS V14.00,2013-05-17 17:35:00,
2013-05-17 13:36:00,77.7,26.4,30.06,NNW,338,5.6,7.8,15,0.00,,---,0.00,VWS V14.00,2013-05-17 17:36:00,
2013-05-17 13:38:00,77.7,26.4,30.06,North,0,2.9,4.0,15,0.00,,---,0.00,VWS V14.00,2013-05-17 17:38:00,
2013-05-17 13:41:00,78.4,27.0,30.06,NNE,22,7.4,7.4,15,0.00,,---,0.00,VWS V14.00,2013-05-17 17:41:00,
2013-05-17 13:45:00,77.4,26.1,30.06,West,270,6.5,8.7,15,0.00,,---,0.00,VWS V14.00,2013-05-17 17:45:00,
2013-05-17 13:46:00,77.4,26.1,30.06,West,270,7.4,8.1,15,0.00,,---,0.00,VWS V14.00,2013-05-17 17:46:00,
2013-05-17 13:47:00,77.0,25.9,30.06,NNW,338,5.8,7.4,15,0.00,,---,0.00,VWS V14.00,2013-05-17 17:47:00,
2013-05-17 13:50:00,76.8,25.7,30.06,WNW,292,6.5,7.2,15,0.00,,---,0.00,VWS V14.00,2013-05-17 17:50:00,
2013-05-17 13:51:00,77.2,26.0,30.06,NNW,338,5.8,6.5,15,0.00,,---,0.00,VWS V14.00,2013-05-17 17:51:00,
2013-05-17 13:53:00,77.4,26.1,30.06,NNE,22,3.6,7.2,15,0.00,,---,0.00,VWS V14.00,2013-05-17 17:53:00,
2013-05-17 13:55:00,78.3,26.9,30.06,West,270,3.8,3.8,15,0.00,,---,0.00,VWS V14.00,2013-05-17 17:55:00,
2013-05-17 13:57:00,78.1,26.7,30.06,West,270,4.3,5.6,15,0.00,,---,0.00,VWS V14.00,2013-05-17 17:57:00,
2013-05-17 13:58:00,77.9,26.6,30.06,WNW,292,2.7,5.4,15,0.00,,---,0.00,VWS V14.00,2013-05-17 17:58:00,
2013-05-17 14:02:00,78.1,26.7,30.06,North,0,5.6,5.6,15,0.00,,---,0.00,VWS V14.00,2013-05-17 18:02:00,
2013-05-17 14:03:00,78.1,26.7,30.06,NE,45,5.4,6.0,15,0.00,,---,0.00,VWS V14.00,2013-05-17 18:03:00,
2013-05-17 14:04:00,77.9,26.6,30.06,North,0,2.7,5.4,15,0.00,,---,0.00,VWS V14.00,2013-05-17 18:04:00,
2013-05-17 14:07:00,77.7,26.4,30.06,NNE,22,4.9,6.5,15,0.00,,---,0.00,VWS V14.00,2013-05-17 18:07:00,
2013-05-17 14:09:00,77.9,26.6,30.06,NNE,22,3.8,6.3,15,0.00,,---,0.00,VWS V14.00,2013-05-17 18:09:00,
2013-05-17 14:10:00,78.3,26.9,30.06,North,0,4.0,5.6,15,0.00,,---,0.00,VWS V14.00,2013-05-17 18:10:00,
2013-05-17 14:11:00,78.1,26.7,30.06,NNW,338,2.7,4.0,15,0.00,,---,0.00,VWS V14.00,2013-05-17 18:11:00,
2013-05-17 14:12:00,78.3,26.9,30.06,NW,315,4.0,6.3,15,0.00,,---,0.00,VWS V14.00,2013-05-17 18:12:00,
2013-05-17 14:14:00,78.4,27.0,30.06,North,0,6.0,6.3,15,0.00,,---,0.00,VWS V14.00,2013-05-17 18:14:00,
2013-05-17 14:15:00,78.3,26.9,30.06,NNW,338,2.9,6.0,15,0.00,,---,0.00,VWS V14.00,2013-05-17 18:15:00,
2013-05-17 14:17:00,79.2,27.6,30.06,North,0,0.0,6.0,15,0.00,,---,0.00,VWS V14.00,2013-05-17 18:17:00,
2013-05-17 14:19:00,78.8,27.3,30.06,NE,45,4.9,6.9,15,0.00,,---,0.00,VWS V14.00,2013-05-17 18:19:00,
2013-05-17 14:21:00,78.3,26.9,30.06,NNE,22,4.3,8.7,15,0.00,,---,0.00,VWS V14.00,2013-05-17 18:21:00,
2013-05-17 14:22:00,78.1,26.7,30.06,NNW,338,7.8,7.8,15,0.00,,---,0.00,VWS V14.00,2013-05-17 18:22:00,
2013-05-17 14:24:00,79.2,27.6,30.06,NNW,338,1.6,3.1,15,0.00,,---,0.00,VWS V14.00,2013-05-17 18:24:00,
2013-05-17 14:26:00,79.0,27.4,30.06,NNW,338,6.0,7.4,15,0.00,,---,0.00,VWS V14.00,2013-05-17 18:26:00,
2013-05-17 14:27:00,78.6,27.1,30.06,North,0,7.4,7.4,15,0.00,,---,0.00,VWS V14.00,2013-05-17 18:27:00,
2013-05-17 14:30:00,78.3,26.9,30.06,NNE,22,3.1,7.2,15,0.00,,---,0.00,VWS V14.00,2013-05-17 18:30:00,
2013-05-17 14:32:00,78.6,27.1,30.06,North,0,3.6,6.5,15,0.00,,---,0.00,VWS V14.00,2013-05-17 18:32:00,
2013-05-17 14:34:00,78.8,27.3,30.06,NNE,22,3.6,5.6,15,0.00,,---,0.00,VWS V14.00,2013-05-17 18:34:00,
2013-05-17 14:35:00,78.8,27.3,30.06,North,0,3.4,3.6,15,0.00,,---,0.00,VWS V14.00,2013-05-17 18:35:00,
2013-05-17 14:36:00,78.8,27.3,30.06,North,0,3.8,3.8,15,0.00,,---,0.00,VWS V14.00,2013-05-17 18:36:00,
2013-05-17 14:37:00,78.8,27.3,30.06,NE,45,4.0,4.0,15,0.00,,---,0.00,VWS V14.00,2013-05-17 18:37:00,
2013-05-17 14:39:00,78.4,27.0,30.06,NNW,338,4.7,7.6,15,0.00,,---,0.00,VWS V14.00,2013-05-17 18:39:00,
2013-05-17 14:40:00,78.8,27.3,30.06,NE,45,4.3,4.7,15,0.00,,---,0.00,VWS V14.00,2013-05-17 18:40:00,
2013-05-17 14:43:00,78.3,26.9,30.06,NE,45,3.8,6.0,15,0.00,,---,0.00,VWS V14.00,2013-05-17 18:43:00,
2013-05-17 14:44:00,78.1,26.7,30.06,ENE,68,6.5,6.5,15,0.00,,---,0.00,VWS V14.00,2013-05-17 18:44:00,
2013-05-17 14:46:00,74.5,25.4,30.06,ESE,112,4.3,6.0,16,0.00,,---,0.00,VWS V14.00,2013-05-17 18:46:00,
2013-05-17 14:50:00,73.8,24.8,30.09,ENE,68,4.3,5.6,16,0.00,,---,0.00,VWS V14.00,2013-05-17 18:50:00,
2013-05-17 14:51:00,74.7,25.5,30.09,ENE,68,3.8,4.3,16,0.00,,---,0.00,VWS V14.00,2013-05-17 18:51:00,
2013-05-17 14:52:00,74.1,25.1,30.09,NE,45,3.1,6.5,16,0.00,,---,0.00,VWS V14.00,2013-05-17 18:52:00,
2013-05-17 14:53:00,74.7,25.5,30.09,NE,45,3.1,3.1,16,0.00,,---,0.00,VWS V14.00,2013-05-17 18:53:00,
2013-05-17 14:55:00,75.0,25.8,30.09,ENE,68,7.6,7.8,16,0.00,,---,0.00,VWS V14.00,2013-05-17 18:55:00,
2013-05-17 14:57:00,74.3,25.2,30.09,NNW,338,5.6,7.6,16,0.00,,---,0.00,VWS V14.00,2013-05-17 18:57:00,
2013-05-17 14:58:00,75.0,25.8,30.09,ENE,68,3.4,5.6,16,0.00,,---,0.00,VWS V14.00,2013-05-17 18:58:00,
2013-05-17 15:01:00,75.4,24.6,30.09,NE,45,3.8,4.3,15,0.00,,---,0.00,VWS V14.00,2013-05-17 19:01:00,
2013-05-17 15:03:00,74.1,25.1,30.09,East,90,6.3,8.1,16,0.00,,---,0.00,VWS V14.00,2013-05-17 19:03:00,
2013-05-17 15:05:00,73.6,24.7,30.09,ENE,68,5.4,6.5,16,0.00,,---,0.00,VWS V14.00,2013-05-17 19:05:00,
2013-05-17 15:07:00,73.8,24.8,30.09,ENE,68,9.8,9.8,16,0.00,,---,0.00,VWS V14.00,2013-05-17 19:07:00,
2013-05-17 15:12:00,72.3,23.6,30.09,ESE,112,7.4,7.4,16,0.00,,---,0.00,VWS V14.00,2013-05-17 19:12:00,
2013-05-17 15:13:00,72.9,24.1,30.09,ENE,68,5.4,7.4,16,0.00,,---,0.00,VWS V14.00,2013-05-17 19:13:00,
2013-05-17 15:14:00,72.5,23.8,30.09,NE,45,5.4,6.0,16,0.00,,---,0.00,VWS V14.00,2013-05-17 19:14:00,
2013-05-17 15:16:00,72.9,24.1,30.09,ENE,68,2.5,6.0,16,0.00,,---,0.00,VWS V14.00,2013-05-17 19:16:00,
2013-05-17 15:18:00,73.2,24.4,30.09,ESE,112,4.3,5.6,16,0.00,,---,0.00,VWS V14.00,2013-05-17 19:18:00,
2013-05-17 15:19:00,73.6,24.7,30.06,NNE,22,2.7,4.9,16,0.00,,---,0.00,VWS V14.00,2013-05-17 19:19:00,
2013-05-17 15:21:00,74.8,25.7,30.06,West,270,1.1,3.6,16,0.00,,---,0.00,VWS V14.00,2013-05-17 19:21:00,
2013-05-17 15:23:00,75.4,24.6,30.06,NE,45,1.3,2.9,15,0.00,,---,0.00,VWS V14.00,2013-05-17 19:23:00,
2013-05-17 15:26:00,78.1,26.7,30.06,NE,45,1.3,1.6,15,0.00,,---,0.00,VWS V14.00,2013-05-17 19:26:00,
2013-05-17 15:27:00,78.1,26.7,30.06,ENE,68,8.7,9.2,15,0.00,,---,0.00,VWS V14.00,2013-05-17 19:27:00,
2013-05-17 15:29:00,75.2,24.4,30.06,East,90,4.3,8.1,15,0.00,,---,0.00,VWS V14.00,2013-05-17 19:29:00,
2013-05-17 15:31:00,74.1,25.1,30.06,ENE,68,6.0,8.1,16,0.00,,---,0.00,VWS V14.00,2013-05-17 19:31:00,
2013-05-17 15:33:00,74.3,25.2,30.06,ENE,68,3.6,4.0,16,0.00,,---,0.00,VWS V14.00,2013-05-17 19:33:00,
2013-05-17 15:34:00,74.3,25.2,30.09,ENE,68,6.5,6.5,16,0.00,,---,0.00,VWS V14.00,2013-05-17 19:34:00,
2013-05-17 15:35:00,74.1,25.1,30.09,NE,45,9.6,9.6,16,0.00,,---,0.00,VWS V14.00,2013-05-17 19:35:00,
2013-05-17 15:38:00,73.2,24.4,30.09,ESE,112,2.9,8.1,16,0.00,,---,0.00,VWS V14.00,2013-05-17 19:38:00,
2013-05-17 15:40:00,72.5,23.8,30.09,SSE,158,5.6,5.6,16,0.00,,---,0.00,VWS V14.00,2013-05-17 19:40:00,
2013-05-17 15:43:00,73.0,24.2,30.09,ENE,68,8.7,8.7,16,0.00,,---,0.00,VWS V14.00,2013-05-17 19:43:00,
2013-05-17 15:45:00,72.9,24.1,30.09,ENE,68,6.5,6.5,16,0.00,,---,0.00,VWS V14.00,2013-05-17 19:45:00,
2013-05-17 15:46:00,72.5,23.8,30.09,ESE,112,6.0,7.4,16,0.00,,---,0.00,VWS V14.00,2013-05-17 19:46:00,
2013-05-17 15:47:00,72.1,23.5,30.09,NE,45,3.6,6.0,16,0.00,,---,0.00,VWS V14.00,2013-05-17 19:47:00,
2013-05-17 15:51:00,71.6,23.1,30.06,ESE,112,5.4,8.1,16,0.00,,---,0.00,VWS V14.00,2013-05-17 19:51:00,
2013-05-17 15:53:00,71.4,24.4,30.06,NE,45,5.4,5.8,17,0.00,,---,0.00,VWS V14.00,2013-05-17 19:53:00,
2013-05-17 15:55:00,71.2,24.2,30.06,ENE,68,7.6,7.6,17,0.00,,---,0.00,VWS V14.00,2013-05-17 19:55:00,
2013-05-17 15:56:00,71.2,24.2,30.06,NE,45,9.6,9.6,17,0.00,,---,0.00,VWS V14.00,2013-05-17 19:56:00,
2013-05-17 15:59:00,70.3,23.5,30.06,NE,45,5.6,12.1,17,0.00,,---,0.00,VWS V14.00,2013-05-17 19:59:00,
2013-05-17 16:02:00,69.8,23.1,30.06,ESE,112,6.0,11.4,17,0.00,,---,0.00,VWS V14.00,2013-05-17 20:02:00,
2013-05-17 16:04:00,69.8,23.1,30.06,SE,135,8.5,10.3,17,0.00,,---,0.00,VWS V14.00,2013-05-17 20:04:00,
2013-05-17 16:07:00,70.5,23.6,30.06,ENE,68,4.0,6.0,17,0.00,,---,0.00,VWS V14.00,2013-05-17 20:07:00,
2013-05-17 16:10:00,71.1,24.1,30.06,NNE,22,4.3,7.6,17,0.00,,---,0.00,VWS V14.00,2013-05-17 20:10:00,
2013-05-17 16:11:00,70.9,23.9,30.06,ENE,68,7.6,7.8,17,0.00,,---,0.00,VWS V14.00,2013-05-17 20:11:00,
2013-05-17 16:12:00,71.1,24.1,30.06,ESE,112,4.0,7.6,17,0.00,,---,0.00,VWS V14.00,2013-05-17 20:12:00,
2013-05-17 16:16:00,70.5,23.6,30.06,ESE,112,5.4,7.4,17,0.00,,---,0.00,VWS V14.00,2013-05-17 20:16:00,
2013-05-17 16:17:00,70.2,23.4,30.06,ENE,68,6.5,7.2,17,0.00,,---,0.00,VWS V14.00,2013-05-17 20:17:00,
2013-05-17 16:18:00,69.8,23.1,30.06,SE,135,6.5,6.5,17,0.00,,---,0.00,VWS V14.00,2013-05-17 20:18:00,
2013-05-17 16:22:00,69.6,22.9,30.06,ESE,112,6.5,6.5,17,0.00,,---,0.00,VWS V14.00,2013-05-17 20:22:00,
2013-05-17 16:23:00,69.8,23.1,30.06,NE,45,7.2,7.2,17,0.00,,---,0.00,VWS V14.00,2013-05-17 20:23:00,
2013-05-17 16:24:00,69.8,23.1,30.06,ESE,112,7.8,7.8,17,0.00,,---,0.00,VWS V14.00,2013-05-17 20:24:00,
2013-05-17 16:25:00,70.2,23.4,30.06,ESE,112,5.4,7.8,17,0.00,,---,0.00,VWS V14.00,2013-05-17 20:25:00,
2013-05-17 16:28:00,70.2,23.4,30.06,ENE,68,7.8,7.8,17,0.00,,---,0.00,VWS V14.00,2013-05-17 20:28:00,
2013-05-17 16:29:00,70.0,23.2,30.06,NE,45,7.4,7.8,17,0.00,,---,0.00,VWS V14.00,2013-05-17 20:29:00,
2013-05-17 16:30:00,70.0,23.2,30.06,NE,45,3.8,7.8,17,0.00,,---,0.00,VWS V14.00,2013-05-17 20:30:00,
2013-05-17 16:31:00,70.0,23.2,30.06,NE,45,3.8,8.1,17,0.00,,---,0.00,VWS V14.00,2013-05-17 20:31:00,
2013-05-17 16:34:00,69.4,22.8,30.09,ESE,112,8.7,9.6,17,0.00,,---,0.00,VWS V14.00,2013-05-17 20:34:00,
2013-05-17 16:35:00,69.3,22.6,30.09,ESE,112,7.6,8.7,17,0.00,,---,0.00,VWS V14.00,2013-05-17 20:35:00,
2013-05-17 16:36:00,69.4,22.8,30.09,East,90,7.2,7.6,17,0.00,,---,0.00,VWS V14.00,2013-05-17 20:36:00,
2013-05-17 16:37:00,69.4,22.8,30.09,ENE,68,7.4,9.6,17,0.00,,---,0.00,VWS V14.00,2013-05-17 20:37:00,
2013-05-17 16:39:00,69.8,23.1,30.09,East,90,4.9,6.3,17,0.00,,---,0.00,VWS V14.00,2013-05-17 20:39:00,
2013-05-17 16:41:00,70.0,23.2,30.09,SE,135,8.1,8.1,17,0.00,,---,0.00,VWS V14.00,2013-05-17 20:41:00,
2013-05-17 16:43:00,69.8,23.1,30.09,East,90,5.4,6.9,17,0.00,,---,0.00,VWS V14.00,2013-05-17 20:43:00,
2013-05-17 16:44:00,70.0,23.2,30.09,ESE,112,6.5,6.5,17,0.00,,---,0.00,VWS V14.00,2013-05-17 20:44:00,
2013-05-17 16:46:00,70.0,23.2,30.09,ESE,112,7.2,7.2,17,0.00,,---,0.00,VWS V14.00,2013-05-17 20:46:00,
2013-05-17 16:47:00,69.8,23.1,30.09,ESE,112,8.7,8.7,17,0.00,,---,0.00,VWS V14.00,2013-05-17 20:47:00,
2013-05-17 16:49:00,70.0,23.2,30.09,SE,135,7.2,7.2,17,0.00,,---,0.00,VWS V14.00,2013-05-17 20:49:00,
2013-05-17 16:52:00,69.8,23.1,30.09,East,90,5.8,7.8,17,0.00,,---,0.00,VWS V14.00,2013-05-17 20:52:00,
2013-05-17 16:54:00,69.8,23.1,30.09,SE,135,6.5,6.5,17,0.00,,---,0.00,VWS V14.00,2013-05-17 20:54:00,
2013-05-17 16:55:00,69.6,22.9,30.09,ESE,112,3.1,10.3,17,0.00,,---,0.00,VWS V14.00,2013-05-17 20:55:00,
2013-05-17 16:58:00,69.8,23.1,30.09,SE,135,3.6,6.0,17,0.00,,---,0.00,VWS V14.00,2013-05-17 20:58:00,
2013-05-17 16:59:00,70.0,23.2,30.09,ESE,112,8.5,8.5,17,0.00,,---,0.00,VWS V14.00,2013-05-17 20:59:00,
2013-05-17 17:01:00,70.0,23.2,30.09,NNE,22,4.3,7.8,17,0.00,,---,0.00,VWS V14.00,2013-05-17 21:01:00,
2013-05-17 17:03:00,70.0,23.2,30.09,ESE,112,6.5,7.6,17,0.00,,---,0.00,VWS V14.00,2013-05-17 21:03:00,
2013-05-17 17:05:00,69.8,23.1,30.09,ESE,112,3.6,7.6,17,0.00,,---,0.00,VWS V14.00,2013-05-17 21:05:00,
2013-05-17 17:06:00,69.8,23.1,30.09,ESE,112,2.9,4.3,17,0.00,,---,0.00,VWS V14.00,2013-05-17 21:06:00,
2013-05-17 17:10:00,70.2,23.4,30.09,ENE,68,4.0,4.0,17,0.00,,---,0.00,VWS V14.00,2013-05-17 21:10:00,
2013-05-17 17:11:00,70.2,23.4,30.09,NE,45,6.3,6.3,17,0.00,,---,0.00,VWS V14.00,2013-05-17 21:11:00,
2013-05-17 17:14:00,70.2,23.4,30.09,SE,135,2.7,4.3,17,0.00,,---,0.00,VWS V14.00,2013-05-17 21:14:00,
2013-05-17 17:15:00,70.3,23.5,30.09,ESE,112,5.8,6.3,17,0.00,,---,0.00,VWS V14.00,2013-05-17 21:15:00,
2013-05-17 17:16:00,70.2,23.4,30.09,SSE,158,6.0,6.0,17,0.00,,---,0.00,VWS V14.00,2013-05-17 21:16:00,
2013-05-17 17:17:00,70.2,23.4,30.09,SE,135,4.9,6.0,17,0.00,,---,0.00,VWS V14.00,2013-05-17 21:17:00,
2013-05-17 17:19:00,70.2,23.4,30.09,ENE,68,4.0,4.7,17,0.00,,---,0.00,VWS V14.00,2013-05-17 21:19:00,
2013-05-17 17:20:00,70.0,23.2,30.09,ESE,112,6.3,6.3,17,0.00,,---,0.00,VWS V14.00,2013-05-17 21:20:00,
2013-05-17 17:24:00,70.3,23.5,30.09,NE,45,5.8,5.8,17,0.00,,---,0.00,VWS V14.00,2013-05-17 21:24:00,
2013-05-17 17:25:00,69.8,23.1,30.09,ESE,112,5.6,5.8,17,0.00,,---,0.00,VWS V14.00,2013-05-17 21:25:00,
2013-05-17 17:26:00,69.8,23.1,30.09,ESE,112,4.0,8.7,17,0.00,,---,0.00,VWS V14.00,2013-05-17 21:26:00,
2013-05-17 17:27:00,69.6,22.9,30.09,NE,45,5.8,5.8,17,0.00,,---,0.00,VWS V14.00,2013-05-17 21:27:00,
2013-05-17 17:30:00,69.3,22.6,30.09,ESE,112,7.4,7.4,17,0.00,,---,0.00,VWS V14.00,2013-05-17 21:30:00,
2013-05-17 17:32:00,69.4,22.8,30.09,NE,45,5.4,5.4,17,0.00,,---,0.00,VWS V14.00,2013-05-17 21:32:00,
2013-05-17 17:35:00,69.8,23.1,30.09,ESE,112,3.6,6.3,17,0.00,,---,0.00,VWS V14.00,2013-05-17 21:35:00,
2013-05-17 17:36:00,69.8,23.1,30.09,NNE,22,6.7,6.7,17,0.00,,---,0.00,VWS V14.00,2013-05-17 21:36:00,
2013-05-17 17:39:00,69.4,22.8,30.09,NNW,338,5.6,7.8,17,0.00,,---,0.00,VWS V14.00,2013-05-17 21:39:00,
2013-05-17 17:40:00,69.4,22.8,30.09,ENE,68,2.7,5.6,17,0.00,,---,0.00,VWS V14.00,2013-05-17 21:40:00,
2013-05-17 17:41:00,69.6,22.9,30.09,ESE,112,2.9,4.3,17,0.00,,---,0.00,VWS V14.00,2013-05-17 21:41:00,
2013-05-17 17:42:00,69.4,22.8,30.09,ESE,112,4.0,5.6,17,0.00,,---,0.00,VWS V14.00,2013-05-17 21:42:00,
2013-05-17 17:47:00,69.4,22.8,30.09,ESE,112,5.8,5.8,17,0.00,,---,0.00,VWS V14.00,2013-05-17 21:47:00,
2013-05-17 17:48:00,69.4,22.8,30.09,NE,45,3.6,5.8,17,0.00,,---,0.00,VWS V14.00,2013-05-17 21:48:00,
2013-05-17 17:49:00,69.4,22.8,30.09,NNE,22,4.0,5.8,17,0.00,,---,0.00,VWS V14.00,2013-05-17 21:49:00,
2013-05-17 17:53:00,69.6,22.9,30.09,ENE,68,4.5,6.5,17,0.00,,---,0.00,VWS V14.00,2013-05-17 21:53:00,
2013-05-17 17:56:00,69.3,22.6,30.09,NE,45,4.9,6.0,17,0.00,,---,0.00,VWS V14.00,2013-05-17 21:56:00,
2013-05-17 17:58:00,69.3,22.6,30.09,ESE,112,3.1,7.6,17,0.00,,---,0.00,VWS V14.00,2013-05-17 21:58:00,
2013-05-17 18:00:00,69.3,22.6,30.09,ESE,112,6.3,6.5,17,0.00,,---,0.00,VWS V14.00,2013-05-17 22:00:00,
2013-05-17 18:01:00,69.1,22.5,30.09,SE,135,4.3,6.5,17,0.00,,---,0.00,VWS V14.00,2013-05-17 22:01:00,
2013-05-17 18:02:00,69.1,22.5,30.09,ESE,112,3.6,4.9,17,0.00,,---,0.00,VWS V14.00,2013-05-17 22:02:00,
2013-05-17 18:04:00,69.4,22.8,30.09,NE,45,2.7,5.6,17,0.00,,---,0.00,VWS V14.00,2013-05-17 22:04:00,
2013-05-17 18:06:00,69.6,22.9,30.09,East,90,4.7,6.3,17,0.00,,---,0.00,VWS V14.00,2013-05-17 22:06:00,
2013-05-17 18:07:00,69.6,22.9,30.09,SE,135,3.8,4.9,17,0.00,,---,0.00,VWS V14.00,2013-05-17 22:07:00,
2013-05-17 18:08:00,69.6,22.9,30.09,SE,135,5.4,6.5,17,0.00,,---,0.00,VWS V14.00,2013-05-17 22:08:00,
2013-05-17 18:10:00,69.4,22.8,30.09,ESE,112,5.8,5.8,17,0.00,,---,0.00,VWS V14.00,2013-05-17 22:10:00,
2013-05-17 18:11:00,69.4,22.8,30.09,SE,135,4.3,6.3,17,0.00,,---,0.00,VWS V14.00,2013-05-17 22:11:00,
2013-05-17 18:13:00,69.6,22.9,30.09,ENE,68,3.6,4.3,17,0.00,,---,0.00,VWS V14.00,2013-05-17 22:13:00,
2013-05-17 18:14:00,69.6,22.9,30.09,East,90,4.3,4.9,17,0.00,,---,0.00,VWS V14.00,2013-05-17 22:14:00,
2013-05-17 18:17:00,69.4,22.8,30.09,SSE,158,2.5,3.8,17,0.00,,---,0.00,VWS V14.00,2013-05-17 22:17:00,
2013-05-17 18:18:00,69.4,22.8,30.09,SE,135,4.9,6.9,17,0.00,,---,0.00,VWS V14.00,2013-05-17 22:18:00,
2013-05-17 18:20:00,69.3,22.6,30.09,ESE,112,5.6,6.3,17,0.00,,---,0.00,VWS V14.00,2013-05-17 22:20:00,
2013-05-17 18:21:00,69.3,22.6,30.09,ESE,112,5.6,6.5,17,0.00,,---,0.00,VWS V14.00,2013-05-17 22:21:00,
2013-05-17 18:22:00,69.3,22.6,30.09,SE,135,6.0,6.0,17,0.00,,---,0.00,VWS V14.00,2013-05-17 22:22:00,
2013-05-17 18:24:00,69.1,22.5,30.09,ESE,112,5.4,5.8,17,0.00,,---,0.00,VWS V14.00,2013-05-17 22:24:00,
2013-05-17 18:26:00,68.9,22.3,30.09,SE,135,5.8,5.8,17,0.00,,---,0.00,VWS V14.00,2013-05-17 22:26:00,
2013-05-17 18:28:00,68.9,22.3,30.09,SE,135,2.2,4.0,17,0.00,,---,0.00,VWS V14.00,2013-05-17 22:28:00,
2013-05-17 18:31:00,68.9,22.3,30.09,SE,135,3.6,3.6,17,0.00,,---,0.00,VWS V14.00,2013-05-17 22:31:00,
2013-05-17 18:33:00,68.9,22.3,30.09,ESE,112,4.3,4.3,17,0.00,,---,0.00,VWS V14.00,2013-05-17 22:33:00,
2013-05-17 18:35:00,68.9,22.3,30.09,ESE,112,3.6,5.6,17,0.00,,---,0.00,VWS V14.00,2013-05-17 22:35:00,
2013-05-17 18:37:00,68.9,22.3,30.09,SE,135,3.1,5.6,17,0.00,,---,0.00,VWS V14.00,2013-05-17 22:37:00,
2013-05-17 18:38:00,68.9,22.3,30.09,ESE,112,0.0,3.1,17,0.00,,---,0.00,VWS V14.00,2013-05-17 22:38:00,
2013-05-17 18:40:00,69.1,22.5,30.09,East,90,0.9,2.7,17,0.00,,---,0.00,VWS V14.00,2013-05-17 22:40:00,
2013-05-17 18:41:00,69.1,22.5,30.09,ENE,68,0.9,2.5,17,0.00,,---,0.00,VWS V14.00,2013-05-17 22:41:00,
2013-05-17 18:43:00,69.1,22.5,30.09,ESE,112,4.7,4.7,17,0.00,,---,0.00,VWS V14.00,2013-05-17 22:43:00,
2013-05-17 18:44:00,68.9,22.3,30.09,SE,135,3.6,4.9,17,0.00,,---,0.00,VWS V14.00,2013-05-17 22:44:00,
2013-05-17 18:45:00,68.9,22.3,30.09,ESE,112,2.9,4.9,17,0.00,,---,0.00,VWS V14.00,2013-05-17 22:45:00,
2013-05-17 18:46:00,68.9,22.3,30.09,ESE,112,3.8,4.9,17,0.00,,---,0.00,VWS V14.00,2013-05-17 22:46:00,
2013-05-17 18:49:00,68.7,22.2,30.06,ESE,112,4.3,4.7,17,0.00,,---,0.00,VWS V14.00,2013-05-17 22:49:00,
2013-05-17 18:50:00,68.7,22.2,30.06,ESE,112,5.4,5.4,17,0.00,,---,0.00,VWS V14.00,2013-05-17 22:50:00,
2013-05-17 18:52:00,68.7,22.2,30.06,SE,135,5.6,5.6,17,0.00,,---,0.00,VWS V14.00,2013-05-17 22:52:00,
2013-05-17 18:53:00,68.4,21.9,30.06,SE,135,3.4,5.6,17,0.00,,---,0.00,VWS V14.00,2013-05-17 22:53:00,
2013-05-17 18:54:00,68.4,21.9,30.06,ESE,112,2.5,3.4,17,0.00,,---,0.00,VWS V14.00,2013-05-17 22:54:00,
2013-05-17 18:56:00,68.4,21.9,30.06,SE,135,4.3,5.4,17,0.00,,---,0.00,VWS V14.00,2013-05-17 22:56:00,
2013-05-17 18:58:00,68.2,21.7,30.06,SE,135,3.1,4.3,17,0.00,,---,0.00,VWS V14.00,2013-05-17 22:58:00,
2013-05-17 18:59:00,68.2,21.7,30.06,SE,135,3.4,4.7,17,0.00,,---,0.00,VWS V14.00,2013-05-17 22:59:00,
2013-05-17 19:00:00,68.2,21.7,30.06,SE,135,2.7,3.4,17,0.00,,---,0.00,VWS V14.00,2013-05-17 23:00:00,
2013-05-17 19:03:00,68.0,21.6,30.06,ESE,112,3.1,4.0,17,0.00,,---,0.00,VWS V14.00,2013-05-17 23:03:00,
2013-05-17 19:05:00,68.0,21.6,30.09,SE,135,4.0,4.5,17,0.00,,---,0.00,VWS V14.00,2013-05-17 23:05:00,
2013-05-17 19:06:00,67.8,21.5,30.09,SE,135,3.4,4.0,17,0.00,,---,0.00,VWS V14.00,2013-05-17 23:06:00,
2013-05-17 19:07:00,67.8,21.5,30.09,SE,135,3.4,3.6,17,0.00,,---,0.00,VWS V14.00,2013-05-17 23:07:00,
2013-05-17 19:09:00,67.8,21.5,30.09,SE,135,0.0,2.5,17,0.00,,---,0.00,VWS V14.00,2013-05-17 23:09:00,
2013-05-17 19:11:00,67.5,21.2,30.09,SSE,158,2.9,3.6,17,0.00,,---,0.00,VWS V14.00,2013-05-17 23:11:00,
2013-05-17 19:15:00,66.9,20.7,30.09,SSE,158,1.6,4.3,17,0.00,,---,0.00,VWS V14.00,2013-05-17 23:15:00,
2013-05-17 19:16:00,66.9,20.7,30.09,South,180,2.0,2.7,17,0.00,,---,0.00,VWS V14.00,2013-05-17 23:16:00,
2013-05-17 19:17:00,66.9,20.7,30.09,South,180,2.0,2.5,17,0.00,,---,0.00,VWS V14.00,2013-05-17 23:17:00,
2013-05-17 19:21:00,66.7,20.6,30.09,South,180,0.0,1.3,17,0.00,,---,0.00,VWS V14.00,2013-05-17 23:21:00,
2013-05-17 19:23:00,66.9,20.7,30.09,South,180,3.1,3.1,17,0.00,,---,0.00,VWS V14.00,2013-05-17 23:23:00,
2013-05-17 19:25:00,66.9,20.7,30.09,South,180,2.9,3.4,17,0.00,,---,0.00,VWS V14.00,2013-05-17 23:25:00,
2013-05-17 19:26:00,66.6,20.4,30.09,South,180,2.0,3.8,17,0.00,,---,0.00,VWS V14.00,2013-05-17 23:26:00,
2013-05-17 19:27:00,66.6,20.4,30.09,South,180,2.2,2.7,17,0.00,,---,0.00,VWS V14.00,2013-05-17 23:27:00,
2013-05-17 19:30:00,66.4,20.3,30.09,South,180,1.6,1.6,17,0.00,,---,0.00,VWS V14.00,2013-05-17 23:30:00,
2013-05-17 19:32:00,66.4,20.3,30.09,South,180,0.0,2.5,17,0.00,,---,0.00,VWS V14.00,2013-05-17 23:32:00,
2013-05-17 19:33:00,66.2,20.1,30.09,South,180,0.0,0.0,17,0.00,,---,0.00,VWS V14.00,2013-05-17 23:33:00,
2013-05-17 19:35:00,66.2,20.1,30.12,South,180,0.9,0.9,17,0.00,,---,0.00,VWS V14.00,2013-05-17 23:35:00,
2013-05-17 19:37:00,66.2,20.1,30.12,South,180,0.0,0.0,17,0.00,,---,0.00,VWS V14.00,2013-05-17 23:37:00,
2013-05-17 19:40:00,66.0,21.3,30.12,South,180,0.0,0.0,18,0.00,,---,0.00,VWS V14.00,2013-05-17 23:40:00,
2013-05-17 19:42:00,65.7,21.0,30.12,South,180,0.9,1.3,18,0.00,,---,0.00,VWS V14.00,2013-05-17 23:42:00,
2013-05-17 19:43:00,65.7,21.0,30.12,South,180,0.0,2.0,18,0.00,,---,0.00,VWS V14.00,2013-05-17 23:43:00,
2013-05-17 19:45:00,65.5,20.9,30.12,SSW,202,2.0,2.7,18,0.00,,---,0.00,VWS V14.00,2013-05-17 23:45:00,
2013-05-17 19:48:00,65.1,20.6,30.12,South,180,2.9,3.8,18,0.00,,---,0.00,VWS V14.00,2013-05-17 23:48:00,
2013-05-17 19:49:00,64.9,20.4,30.12,South,180,3.4,3.4,18,0.00,,---,0.00,VWS V14.00,2013-05-17 23:49:00,
2013-05-17 19:50:00,64.8,20.3,30.12,South,180,3.1,3.4,18,0.00,,---,0.00,VWS V14.00,2013-05-17 23:50:00,
2013-05-17 19:53:00,64.6,20.1,30.12,South,180,1.1,2.0,18,0.00,,---,0.00,VWS V14.00,2013-05-17 23:53:00,
2013-05-17 19:55:00,64.4,20.0,30.12,South,180,1.6,2.0,18,0.00,,---,0.00,VWS V14.00,2013-05-17 23:55:00,
2013-05-17 19:56:00,64.4,20.0,30.12,South,180,2.2,2.7,18,0.00,,---,0.00,VWS V14.00,2013-05-17 23:56:00,
2013-05-17 19:57:00,64.2,19.9,30.12,South,180,1.1,2.5,18,0.00,,---,0.00,VWS V14.00,2013-05-17 23:57:00,
2013-05-17 19:58:00,64.2,19.9,30.12,South,180,2.2,2.2,18,0.00,,---,0.00,VWS V14.00,2013-05-17 23:58:00,
2013-05-17 19:59:00,64.2,19.9,30.12,South,180,2.5,2.5,18,0.00,,---,0.00,VWS V14.00,2013-05-17 23:59:00,
2013-05-17 20:00:00,64.0,19.7,30.12,South,180,2.7,2.7,18,0.00,,---,0.00,VWS V14.00,2013-05-18 00:00:00,
2013-05-17 20:01:00,64.0,19.7,30.12,South,180,2.0,2.7,18,0.00,,---,0.00,VWS V14.00,2013-05-18 00:01:00,
2013-05-17 20:04:00,63.9,19.6,30.12,South,180,1.6,1.6,18,0.00,,---,0.00,VWS V14.00,2013-05-18 00:04:00,
2013-05-17 20:06:00,63.9,19.6,30.12,South,180,1.1,1.1,18,0.00,,---,0.00,VWS V14.00,2013-05-18 00:06:00,
2013-05-17 20:07:00,63.9,19.6,30.12,South,180,0.0,1.1,18,0.00,,---,0.00,VWS V14.00,2013-05-18 00:07:00,
2013-05-17 20:08:00,63.7,19.4,30.12,South,180,1.6,2.5,18,0.00,,---,0.00,VWS V14.00,2013-05-18 00:08:00,
2013-05-17 20:10:00,63.7,19.4,30.12,South,180,2.0,2.2,18,0.00,,---,0.00,VWS V14.00,2013-05-18 00:10:00,
2013-05-17 20:13:00,63.5,19.3,30.12,South,180,0.9,1.6,18,0.00,,---,0.00,VWS V14.00,2013-05-18 00:13:00,
2013-05-17 20:14:00,63.5,19.3,30.12,South,180,1.3,1.3,18,0.00,,---,0.00,VWS V14.00,2013-05-18 00:14:00,
2013-05-17 20:16:00,63.5,19.3,30.12,South,180,2.7,2.7,18,0.00,,---,0.00,VWS V14.00,2013-05-18 00:16:00,
2013-05-17 20:19:00,63.5,19.3,30.12,South,180,2.0,2.0,18,0.00,,---,0.00,VWS V14.00,2013-05-18 00:19:00,
2013-05-17 20:22:00,63.5,19.3,30.12,South,180,0.9,2.0,18,0.00,,---,0.00,VWS V14.00,2013-05-18 00:22:00,
2013-05-17 20:23:00,63.5,19.3,30.12,SSW,202,2.5,2.9,18,0.00,,---,0.00,VWS V14.00,2013-05-18 00:23:00,
2013-05-17 20:24:00,63.5,19.3,30.12,SSW,202,1.6,2.5,18,0.00,,---,0.00,VWS V14.00,2013-05-18 00:24:00,
2013-05-17 20:26:00,63.5,19.3,30.12,SSW,202,2.0,3.1,18,0.00,,---,0.00,VWS V14.00,2013-05-18 00:26:00,
2013-05-17 20:29:00,63.3,19.1,30.12,SSW,202,2.0,2.2,18,0.00,,---,0.00,VWS V14.00,2013-05-18 00:29:00,
2013-05-17 20:30:00,63.3,19.1,30.12,SSW,202,1.1,3.4,18,0.00,,---,0.00,VWS V14.00,2013-05-18 00:30:00,
2013-05-17 20:31:00,63.3,19.1,30.12,SSW,202,2.9,2.9,18,0.00,,---,0.00,VWS V14.00,2013-05-18 00:31:00,
2013-05-17 20:33:00,63.3,19.1,30.12,SSW,202,1.1,2.7,18,0.00,,---,0.00,VWS V14.00,2013-05-18 00:33:00,
2013-05-17 20:34:00,63.3,19.1,30.15,SSW,202,3.4,3.4,18,0.00,,---,0.00,VWS V14.00,2013-05-18 00:34:00,
2013-05-17 20:36:00,63.1,19.0,30.15,SSW,202,2.0,2.7,18,0.00,,---,0.00,VWS V14.00,2013-05-18 00:36:00,
2013-05-17 20:39:00,63.1,19.0,30.15,SSW,202,1.3,2.5,18,0.00,,---,0.00,VWS V14.00,2013-05-18 00:39:00,
2013-05-17 20:40:00,63.1,19.0,30.15,SSW,202,2.5,3.6,18,0.00,,---,0.00,VWS V14.00,2013-05-18 00:40:00,
2013-05-17 20:45:00,63.0,18.8,30.15,SSW,202,0.9,2.7,18,0.00,,---,0.00,VWS V14.00,2013-05-18 00:45:00,
2013-05-17 20:46:00,63.0,18.8,30.15,SSW,202,0.0,0.9,18,0.00,,---,0.00,VWS V14.00,2013-05-18 00:46:00,
2013-05-17 20:48:00,63.0,18.8,30.15,SSW,202,2.5,2.5,18,0.00,,---,0.00,VWS V14.00,2013-05-18 00:48:00,
2013-05-17 20:49:00,63.0,18.8,30.15,SSW,202,2.0,2.5,18,0.00,,---,0.00,VWS V14.00,2013-05-18 00:49:00,
2013-05-17 20:51:00,62.8,18.7,30.15,SSW,202,1.1,3.6,18,0.00,,---,0.00,VWS V14.00,2013-05-18 00:51:00,
2013-05-17 20:52:00,62.8,18.7,30.15,South,180,2.9,4.3,18,0.00,,---,0.00,VWS V14.00,2013-05-18 00:52:00,
2013-05-17 20:55:00,62.8,18.7,30.15,WSW,248,4.3,4.3,18,0.00,,---,0.00,VWS V14.00,2013-05-18 00:55:00,
2013-05-17 20:56:00,62.8,18.7,30.15,SSW,202,2.2,4.3,18,0.00,,---,0.00,VWS V14.00,2013-05-18 00:56:00,
2013-05-17 20:57:00,62.8,18.7,30.15,SSW,202,1.6,2.5,18,0.00,,---,0.00,VWS V14.00,2013-05-18 00:57:00,
2013-05-17 21:01:00,62.6,18.5,30.15,SSW,202,2.7,3.6,18,0.00,,---,0.00,VWS V14.00,2013-05-18 01:01:00,
2013-05-17 21:02:00,62.6,18.5,30.15,SSW,202,3.1,3.8,18,0.00,,---,0.00,VWS V14.00,2013-05-18 01:02:00,
2013-05-17 21:03:00,62.6,18.5,30.15,SSW,202,1.3,3.1,18,0.00,,---,0.00,VWS V14.00,2013-05-18 01:03:00,
2013-05-17 21:07:00,62.6,18.5,30.15,SW,225,3.8,3.8,18,0.00,,---,0.00,VWS V14.00,2013-05-18 01:07:00,
2013-05-17 21:08:00,62.6,18.5,30.15,SSW,202,2.2,3.8,18,0.00,,---,0.00,VWS V14.00,2013-05-18 01:08:00,
2013-05-17 21:09:00,62.6,18.5,30.15,SSW,202,2.2,2.7,18,0.00,,---,0.00,VWS V14.00,2013-05-18 01:09:00,
2013-05-17 21:14:00,62.6,18.5,30.15,SSW,202,0.9,3.6,18,0.00,,---,0.00,VWS V14.00,2013-05-18 01:14:00,
2013-05-17 21:15:00,62.6,18.5,30.15,SSW,202,2.9,3.1,18,0.00,,---,0.00,VWS V14.00,2013-05-18 01:15:00,
2013-05-17 21:16:00,62.6,18.5,30.15,SSW,202,2.0,4.0,18,0.00,,---,0.00,VWS V14.00,2013-05-18 01:16:00,
2013-05-17 21:20:00,62.4,19.6,30.12,SSW,202,2.9,3.6,19,0.00,,---,0.00,VWS V14.00,2013-05-18 01:20:00,
2013-05-17 21:22:00,62.4,19.6,30.12,South,180,4.0,4.0,19,0.00,,---,0.00,VWS V14.00,2013-05-18 01:22:00,
2013-05-17 21:23:00,62.4,19.6,30.12,SSW,202,2.9,4.0,19,0.00,,---,0.00,VWS V14.00,2013-05-18 01:23:00,
2013-05-17 21:24:00,62.4,19.6,30.12,SSW,202,0.9,3.8,19,0.00,,---,0.00,VWS V14.00,2013-05-18 01:24:00,
2013-05-17 21:26:00,62.4,19.6,30.12,SSW,202,2.9,2.9,19,0.00,,---,0.00,VWS V14.00,2013-05-18 01:26:00,
2013-05-17 21:28:00,62.2,19.5,30.12,SSW,202,2.0,3.4,19,0.00,,---,0.00,VWS V14.00,2013-05-18 01:28:00,
2013-05-17 21:29:00,62.2,19.5,30.12,SSW,202,1.3,2.0,19,0.00,,---,0.00,VWS V14.00,2013-05-18 01:29:00,
2013-05-17 21:31:00,62.2,19.5,30.12,SSW,202,1.1,3.1,19,0.00,,---,0.00,VWS V14.00,2013-05-18 01:31:00,
2013-05-17 21:32:00,62.2,19.5,30.12,SSW,202,1.1,1.1,19,0.00,,---,0.00,VWS V14.00,2013-05-18 01:32:00,
2013-05-17 21:33:00,62.1,19.3,30.12,SSW,202,0.0,1.1,19,0.00,,---,0.00,VWS V14.00,2013-05-18 01:33:00,
2013-05-17 21:34:00,62.1,19.3,30.15,SSW,202,0.0,0.0,19,0.00,,---,0.00,VWS V14.00,2013-05-18 01:34:00,
2013-05-17 21:36:00,61.9,19.2,30.15,SSW,202,0.0,0.0,19,0.00,,---,0.00,VWS V14.00,2013-05-18 01:36:00,
2013-05-17 21:39:00,61.7,19.0,30.15,SSW,202,0.0,2.9,19,0.00,,---,0.00,VWS V14.00,2013-05-18 01:39:00,
2013-05-17 21:41:00,61.7,19.0,30.15,SSW,202,0.0,2.0,19,0.00,,---,0.00,VWS V14.00,2013-05-18 01:41:00,
2013-05-17 21:43:00,61.7,19.0,30.15,SSW,202,0.9,1.1,19,0.00,,---,0.00,VWS V14.00,2013-05-18 01:43:00,
2013-05-17 21:44:00,61.5,18.9,30.15,SW,225,0.0,0.9,19,0.00,,---,0.00,VWS V14.00,2013-05-18 01:44:00,
2013-05-17 21:45:00,61.5,18.9,30.15,WSW,248,0.0,2.0,19,0.00,,---,0.00,VWS V14.00,2013-05-18 01:45:00,
2013-05-17 21:48:00,61.3,18.8,30.15,WSW,248,0.0,0.0,19,0.00,,---,0.00,VWS V14.00,2013-05-18 01:48:00,
2013-05-17 21:52:00,61.2,18.6,30.15,WSW,248,0.0,0.0,19,0.00,,---,0.00,VWS V14.00,2013-05-18 01:52:00,
2013-05-17 21:53:00,61.2,18.6,30.15,SW,225,0.0,0.0,19,0.00,,---,0.00,VWS V14.00,2013-05-18 01:53:00,
2013-05-17 21:54:00,61.2,18.6,30.15,SW,225,0.0,1.3,19,0.00,,---,0.00,VWS V14.00,2013-05-18 01:54:00,
2013-05-17 21:55:00,61.0,18.5,30.15,SW,225,0.0,0.0,19,0.00,,---,0.00,VWS V14.00,2013-05-18 01:55:00,
2013-05-17 21:57:00,61.0,18.5,30.15,SW,225,0.0,0.0,19,0.00,,---,0.00,VWS V14.00,2013-05-18 01:57:00,
2013-05-17 22:00:00,60.6,18.2,30.15,SW,225,0.0,0.0,19,0.00,,---,0.00,VWS V14.00,2013-05-18 02:00:00,
2013-05-17 22:02:00,60.6,18.2,30.15,SW,225,0.0,0.0,19,0.00,,---,0.00,VWS V14.00,2013-05-18 02:02:00,
2013-05-17 22:03:00,60.6,18.2,30.15,SW,225,0.0,0.0,19,0.00,,---,0.00,VWS V14.00,2013-05-18 02:03:00,
2013-05-17 22:04:00,60.6,18.2,30.15,SW,225,1.3,1.6,19,0.00,,---,0.00,VWS V14.00,2013-05-18 02:04:00,
2013-05-17 22:05:00,60.6,18.2,30.15,SW,225,0.0,1.3,19,0.00,,---,0.00,VWS V14.00,2013-05-18 02:05:00,
2013-05-17 22:07:00,60.4,18.0,30.15,SW,225,0.0,0.0,19,0.00,,---,0.00,VWS V14.00,2013-05-18 02:07:00,
2013-05-17 22:08:00,60.4,18.0,30.15,SW,225,0.0,0.0,19,0.00,,---,0.00,VWS V14.00,2013-05-18 02:08:00,
2013-05-17 22:09:00,60.3,17.9,30.15,SW,225,0.0,0.0,19,0.00,,---,0.00,VWS V14.00,2013-05-18 02:09:00,
2013-05-17 22:14:00,60.1,17.7,30.15,SW,225,0.0,0.0,19,0.00,,---,0.00,VWS V14.00,2013-05-18 02:14:00,
2013-05-17 22:16:00,59.9,17.6,30.15,SW,225,0.0,0.0,19,0.00,,---,0.00,VWS V14.00,2013-05-18 02:16:00,
2013-05-17 22:18:00,59.7,17.4,30.15,SW,225,0.0,0.0,19,0.00,,---,0.00,VWS V14.00,2013-05-18 02:18:00,
2013-05-17 22:19:00,59.7,17.4,30.15,SW,225,0.0,0.0,19,0.00,,---,0.00,VWS V14.00,2013-05-18 02:19:00,
2013-05-17 22:21:00,59.7,17.4,30.15,SW,225,0.0,0.0,19,0.00,,---,0.00,VWS V14.00,2013-05-18 02:21:00,
2013-05-17 22:23:00,59.5,17.3,30.15,SW,225,0.0,0.0,19,0.00,,---,0.00,VWS V14.00,2013-05-18 02:23:00,
2013-05-17 22:24:00,59.5,17.3,30.15,SW,225,0.0,0.0,19,0.00,,---,0.00,VWS V14.00,2013-05-18 02:24:00,
2013-05-17 22:25:00,59.5,17.3,30.15,SW,225,0.0,0.0,19,0.00,,---,0.00,VWS V14.00,2013-05-18 02:25:00,
2013-05-17 22:27:00,59.4,17.1,30.15,SW,225,0.0,0.0,19,0.00,,---,0.00,VWS V14.00,2013-05-18 02:27:00,
2013-05-17 22:29:00,59.4,17.1,30.15,SW,225,0.0,0.0,19,0.00,,---,0.00,VWS V14.00,2013-05-18 02:29:00,
2013-05-17 22:30:00,59.4,17.1,30.15,SW,225,0.0,0.0,19,0.00,,---,0.00,VWS V14.00,2013-05-18 02:30:00,
2013-05-17 22:34:00,59.4,17.1,30.15,SW,225,0.0,0.0,19,0.00,,---,0.00,VWS V14.00,2013-05-18 02:34:00,
2013-05-17 22:37:00,59.4,17.1,30.15,SW,225,0.0,0.0,19,0.00,,---,0.00,VWS V14.00,2013-05-18 02:37:00,
2013-05-17 22:38:00,59.4,17.1,30.15,SW,225,0.0,0.0,19,0.00,,---,0.00,VWS V14.00,2013-05-18 02:38:00,
2013-05-17 22:39:00,59.2,17.0,30.15,SW,225,0.0,0.0,19,0.00,,---,0.00,VWS V14.00,2013-05-18 02:39:00,
2013-05-17 22:41:00,59.2,17.0,30.15,SW,225,0.0,0.0,19,0.00,,---,0.00,VWS V14.00,2013-05-18 02:41:00,
2013-05-17 22:44:00,59.0,16.8,30.15,SW,225,0.0,0.0,19,0.00,,---,0.00,VWS V14.00,2013-05-18 02:44:00,
2013-05-17 22:45:00,58.8,16.7,30.15,SW,225,0.0,0.0,19,0.00,,---,0.00,VWS V14.00,2013-05-18 02:45:00,
2013-05-17 22:46:00,58.8,16.7,30.15,SW,225,0.0,0.0,19,0.00,,---,0.00,VWS V14.00,2013-05-18 02:46:00,
2013-05-17 22:47:00,58.8,16.7,30.15,SW,225,0.0,0.0,19,0.00,,---,0.00,VWS V14.00,2013-05-18 02:47:00,
2013-05-17 22:50:00,58.8,16.7,30.15,SW,225,0.0,0.0,19,0.00,,---,0.00,VWS V14.00,2013-05-18 02:50:00,
2013-05-17 22:52:00,58.8,16.7,30.15,SW,225,0.0,0.0,19,0.00,,---,0.00,VWS V14.00,2013-05-18 02:52:00,
2013-05-17 22:53:00,58.6,16.5,30.15,SW,225,0.0,0.0,19,0.00,,---,0.00,VWS V14.00,2013-05-18 02:53:00,
2013-05-17 22:55:00,58.5,16.4,30.15,SW,225,0.0,0.0,19,0.00,,---,0.00,VWS V14.00,2013-05-18 02:55:00,
2013-05-17 22:58:00,58.3,16.2,30.15,SW,225,0.0,0.0,19,0.00,,---,0.00,VWS V14.00,2013-05-18 02:58:00,
2013-05-17 23:00:00,58.3,16.2,30.15,SW,225,0.0,0.0,19,0.00,,---,0.00,VWS V14.00,2013-05-18 03:00:00,
2013-05-17 23:01:00,58.3,16.2,30.15,SW,225,0.0,0.0,19,0.00,,---,0.00,VWS V14.00,2013-05-18 03:01:00,
2013-05-17 23:02:00,58.3,16.2,30.15,SW,225,0.0,0.0,19,0.00,,---,0.00,VWS V14.00,2013-05-18 03:02:00,
2013-05-17 23:05:00,58.1,16.1,30.15,SW,225,0.0,0.0,19,0.00,,---,0.00,VWS V14.00,2013-05-18 03:05:00,
2013-05-17 23:06:00,58.1,16.1,30.15,SW,225,0.0,0.0,19,0.00,,---,0.00,VWS V14.00,2013-05-18 03:06:00,
2013-05-17 23:07:00,58.1,16.1,30.15,SW,225,0.0,0.0,19,0.00,,---,0.00,VWS V14.00,2013-05-18 03:07:00,
2013-05-17 23:11:00,57.9,15.9,30.15,SW,225,0.0,0.0,19,0.00,,---,0.00,VWS V14.00,2013-05-18 03:11:00,
2013-05-17 23:12:00,57.9,15.9,30.15,SW,225,0.0,0.0,19,0.00,,---,0.00,VWS V14.00,2013-05-18 03:12:00,
2013-05-17 23:13:00,57.9,15.9,30.15,SW,225,0.0,0.0,19,0.00,,---,0.00,VWS V14.00,2013-05-18 03:13:00,
2013-05-17 23:17:00,57.7,15.8,30.15,SW,225,0.0,0.0,19,0.00,,---,0.00,VWS V14.00,2013-05-18 03:17:00,
2013-05-17 23:18:00,57.7,15.8,30.15,SW,225,0.0,0.0,19,0.00,,---,0.00,VWS V14.00,2013-05-18 03:18:00,
2013-05-17 23:20:00,57.6,15.6,30.15,SW,225,0.0,0.0,19,0.00,,---,0.00,VWS V14.00,2013-05-18 03:20:00,
2013-05-17 23:21:00,57.7,19.2,30.15,SW,225,0.0,0.0,22,0.00,,---,0.00,VWS V14.00,2013-05-18 03:21:00,
2013-05-17 23:23:00,57.6,19.0,30.15,SW,225,0.0,0.0,22,0.00,,---,0.00,VWS V14.00,2013-05-18 03:23:00,
2013-05-17 23:26:00,57.6,19.0,30.15,SW,225,0.0,0.0,22,0.00,,---,0.00,VWS V14.00,2013-05-18 03:26:00,
2013-05-17 23:27:00,57.6,19.0,30.15,SW,225,0.0,0.0,22,0.00,,---,0.00,VWS V14.00,2013-05-18 03:27:00,
2013-05-17 23:28:00,57.6,19.0,30.15,SW,225,0.0,0.0,22,0.00,,---,0.00,VWS V14.00,2013-05-18 03:28:00,
2013-05-17 23:32:00,57.6,19.0,30.15,SW,225,0.0,0.0,22,0.00,,---,0.00,VWS V14.00,2013-05-18 03:32:00,
2013-05-17 23:33:00,57.6,19.0,30.15,SW,225,0.0,0.0,22,0.00,,---,0.00,VWS V14.00,2013-05-18 03:33:00,
2013-05-17 23:34:00,57.6,19.0,30.18,SW,225,0.0,0.0,22,0.00,,---,0.00,VWS V14.00,2013-05-18 03:34:00,
2013-05-17 23:36:00,57.6,19.0,30.18,SW,225,0.0,0.0,22,0.00,,---,0.00,VWS V14.00,2013-05-18 03:36:00,
2013-05-17 23:38:00,57.6,19.0,30.18,SW,225,0.0,0.0,22,0.00,,---,0.00,VWS V14.00,2013-05-18 03:38:00,
2013-05-17 23:39:00,57.4,18.9,30.18,SW,225,0.0,0.0,22,0.00,,---,0.00,VWS V14.00,2013-05-18 03:39:00,
2013-05-17 23:42:00,57.2,18.7,30.18,SW,225,0.0,0.0,22,0.00,,---,0.00,VWS V14.00,2013-05-18 03:42:00,
2013-05-17 23:43:00,57.2,18.7,30.18,SW,225,0.0,0.0,22,0.00,,---,0.00,VWS V14.00,2013-05-18 03:43:00,
2013-05-17 23:44:00,57.2,18.7,30.18,SW,225,0.0,0.0,22,0.00,,---,0.00,VWS V14.00,2013-05-18 03:44:00,
2013-05-17 23:47:00,57.4,18.9,30.18,SW,225,0.0,0.0,22,0.00,,---,0.00,VWS V14.00,2013-05-18 03:47:00,
2013-05-17 23:48:00,57.2,18.7,30.18,SW,225,0.0,0.0,22,0.00,,---,0.00,VWS V14.00,2013-05-18 03:48:00,
2013-05-17 23:49:00,57.2,18.7,30.18,SW,225,0.0,0.0,22,0.00,,---,0.00,VWS V14.00,2013-05-18 03:49:00,
2013-05-17 23:52:00,57.2,18.7,30.18,SW,225,0.0,0.0,22,0.00,,---,0.00,VWS V14.00,2013-05-18 03:52:00,
2013-05-17 23:53:00,57.2,18.7,30.18,SW,225,0.0,0.0,22,0.00,,---,0.00,VWS V14.00,2013-05-18 03:53:00,
2013-05-17 23:54:00,57.2,18.7,30.18,SW,225,0.0,0.0,22,0.00,,---,0.00,VWS V14.00,2013-05-18 03:54:00,
2013-05-17 23:55:00,57.2,18.7,30.18,SW,225,0.0,0.0,22,0.00,,---,0.00,VWS V14.00,2013-05-18 03:55:00,
2013-05-17 23:56:00,57.2,18.7,30.18,SW,225,0.0,0.0,22,0.00,,---,0.00,VWS V14.00,2013-05-18 03:56:00,
2013-05-17 23:58:00,57.2,18.7,30.18,SW,225,0.0,0.0,22,0.00,,---,0.00,VWS V14.00,2013-05-18 03:58:00,